Darstellungsparameter: Aktuell verwendete Einstellungen:
Skalierung der Graphiken ... ?
xyx+y,   Skalierungsfaktor:      Skalierung: Modus: x, Faktor: 1
Darstellungszeitraum ... ?
Vom - - bis: - -   Zeitraum: 21.08.2009 - 03.09.2009
Min/Max/Avg-Anzeige ... ?
Zeige MMA aktuell
Zeige MMA Monat
Zeige MMA alles
Zeige --A aktuell
Zeige --A Monat
Zeige --A alles
Keine MMA-Anzeige
MMA:
Average (ber die Originaldaten)
MMA-Basis: 21.08.2009 - 03.09.2009
Quicknavigation für Darstellung... ?
Tage:      1T, 2T, 3T, 5T -1T -2T -3T -5T +1T +2T +3T +5T
Wochen: 1W, 2W, 3W -1W -2W -3W +1W +2W +3W
Monate: 1M, 3M, 6M -1M -3M -6M +1M +3M +6M
Jahre:    1J, 3J, 5J, 10J -1J -3J -5J -10J +1J +3J +5J +10J
Nutze für die Darstellung ... ?
Originaldaten oder Mittelwerte auf ...
Stundenbasis Tagesbasis Wochenbasis
Monatsbasis Jahresbasis      Datenbasis: Original-Daten
Darstellen als:
Statistik (Auto) Statistik J:M      Darstellung:
Zur Graphik,    zurück zur Übersicht aller Sensoren.
 
Tabellarische Datenbersicht: ?
 
Sensor: Nr:Datum:Temp:Abs-Feuchte:Windchill:Wind:
Aussen-T/F 1 21-08-2009 00:11:00 24 C 10.66 g/m*3 24 C 0 km/h
2 21-08-2009 00:23:00 24.1 C 10.72 g/m*3 24.1 C 0 km/h
3 21-08-2009 00:35:00 23.8 C 10.97 g/m*3 23.8 C 0 km/h
4 21-08-2009 00:47:00 23.6 C 11.06 g/m*3 23.6 C 0 km/h
5 21-08-2009 00:59:00 23.5 C 11.21 g/m*3 23.5 C 0 km/h
6 21-08-2009 01:11:00 23.4 C 11.78 g/m*3 23.4 C 0 km/h
7 21-08-2009 01:23:00 21.7 C 13.73 g/m*3 21.7 C 0 km/h
8 21-08-2009 01:35:00 21.2 C 14.83 g/m*3 21.2 C 0 km/h
9 21-08-2009 01:47:00 20.9 C 15.12 g/m*3 20.9 C 0 km/h
10 21-08-2009 01:59:00 20.4 C 14.68 g/m*3 20.4 C 0 km/h
11 21-08-2009 02:11:00 20.5 C 14.06 g/m*3 20.5 C 0 km/h
12 21-08-2009 02:23:00 20.4 C 13.8 g/m*3 20.4 C 0 km/h
13 21-08-2009 02:35:00 20.2 C 13.64 g/m*3 20.2 C 0 km/h
14 21-08-2009 02:47:00 20.8 C 13.4 g/m*3 20.8 C 0 km/h
15 21-08-2009 02:59:00 20.6 C 13.6 g/m*3 20.6 C 0 km/h
16 21-08-2009 03:11:00 20.5 C 13.52 g/m*3 20.5 C 0 km/h
17 21-08-2009 03:23:01 20.7 C 13.5 g/m*3 20.7 C 0 km/h
18 21-08-2009 03:35:01 20.5 C 13.52 g/m*3 20.5 C 0 km/h
19 21-08-2009 03:47:01 20.3 C 13.89 g/m*3 20.3 C 0 km/h
20 21-08-2009 03:59:01 19.9 C 13.92 g/m*3 19.9 C 0 km/h
21 21-08-2009 04:11:01 19.8 C 14.01 g/m*3 19.8 C 0 km/h
22 21-08-2009 04:23:01 20.1 C 14.08 g/m*3 20.1 C 0 km/h
23 21-08-2009 04:35:01 20.4 C 14.15 g/m*3 20.4 C 0 km/h
24 21-08-2009 04:47:01 20.4 C 13.27 g/m*3 20.4 C 0 km/h
25 21-08-2009 04:59:01 20.5 C 13.17 g/m*3 20.5 C 0 km/h
Sensor: Nr:Datum:Temp:Abs-Feuchte:Windchill:Wind:
Aussen-T/F 26 21-08-2009 05:11:01 20.5 C 13.17 g/m*3 20.5 C 0 km/h
27 21-08-2009 05:23:01 20 C 12.79 g/m*3 20 C 0 km/h
28 21-08-2009 05:35:01 19.6 C 12.66 g/m*3 19.6 C 0 km/h
29 21-08-2009 05:47:01 19.3 C 11.94 g/m*3 19.3 C 0 km/h
30 21-08-2009 05:59:01 19.3 C 11.28 g/m*3 19.3 C 0 km/h
31 21-08-2009 06:11:01 19.1 C 11.15 g/m*3 19.1 C 0 km/h
32 21-08-2009 06:23:01 18.1 C 10.82 g/m*3 18.1 C 0 km/h
33 21-08-2009 06:35:01 18 C 9.68 g/m*3 18 C 0 km/h
34 21-08-2009 06:47:01 18 C 9.68 g/m*3 18 C 0 km/h
35 21-08-2009 06:59:01 18.2 C 9.95 g/m*3 18.2 C 0 km/h
36 21-08-2009 07:11:59 18.2 C 9.79 g/m*3 18.2 C 0 km/h
37 21-08-2009 07:23:59 18.4 C 9.59 g/m*3 18.4 C 0 km/h
38 21-08-2009 07:35:59 18.7 C 10.09 g/m*3 18.7 C 0 km/h
39 21-08-2009 07:47:59 18.9 C 10.21 g/m*3 18.9 C 0 km/h
40 21-08-2009 07:59:59 19.1 C 10.33 g/m*3 19.1 C 0 km/h
41 21-08-2009 08:11:59 19.3 C 10.78 g/m*3 19.3 C 0 km/h
42 21-08-2009 08:23:58 19.4 C 10.84 g/m*3 19.4 C 0 km/h
43 21-08-2009 08:35:58 19.3 C 10.78 g/m*3 19.3 C 0 km/h
44 21-08-2009 08:47:58 19.3 C 10.45 g/m*3 19.3 C 0 km/h
45 21-08-2009 08:59:58 19.4 C 10.18 g/m*3 19.4 C 0 km/h
46 21-08-2009 09:11:58 19.5 C 9.9 g/m*3 19.5 C 0 km/h
47 21-08-2009 09:23:58 19.5 C 10.07 g/m*3 19.5 C 0 km/h
48 21-08-2009 09:35:57 19.5 C 9.4 g/m*3 19.5 C 0 km/h
49 21-08-2009 09:47:58 19.5 C 9.06 g/m*3 19.5 C 0 km/h
50 21-08-2009 09:59:59 19.4 C 8.68 g/m*3 19.4 C 0 km/h
Sensor: Nr:Datum:Temp:Abs-Feuchte:Windchill:Wind:
Aussen-T/F 51 21-08-2009 10:11:57 19.5 C 8.56 g/m*3 19.5 C 0 km/h
52 21-08-2009 10:23:57 19.5 C 8.56 g/m*3 19.5 C 0 km/h
53 21-08-2009 10:35:58 19.7 C 7.98 g/m*3 19.7 C 0 km/h
54 21-08-2009 10:47:57 19.2 C 8.24 g/m*3 19.2 C 0 km/h
55 21-08-2009 10:59:57 17.1 C 8.44 g/m*3 17.1 C 0 km/h
56 21-08-2009 11:11:57 17.7 C 8.45 g/m*3 17.7 C 0 km/h
57 21-08-2009 11:23:56 17.9 C 7.63 g/m*3 17.9 C 0 km/h
58 21-08-2009 11:35:57 17.2 C 7.76 g/m*3 17.2 C 0 km/h
59 21-08-2009 11:47:56 16.4 C 8.37 g/m*3 16.4 C 0 km/h
60 21-08-2009 11:59:56 15.2 C 9.48 g/m*3 15.2 C 0 km/h
61 21-08-2009 12:11:56 15.1 C 10.19 g/m*3 15.1 C 0 km/h
62 21-08-2009 12:23:57 15.5 C 10.71 g/m*3 15.5 C 0 km/h
63 21-08-2009 12:35:56 15.6 C 10.77 g/m*3 15.6 C 0 km/h
64 21-08-2009 12:47:56 15.8 C 10.9 g/m*3 15.8 C 0 km/h
65 21-08-2009 12:59:56 15.9 C 11.1 g/m*3 15.9 C 0 km/h
66 21-08-2009 13:11:56 16 C 10.9 g/m*3 16 C 0 km/h
67 21-08-2009 13:23:56 16.4 C 11.17 g/m*3 16.4 C 0 km/h
68 21-08-2009 13:35:55 16.1 C 10.83 g/m*3 16.1 C 0 km/h
69 21-08-2009 13:47:55 16.3 C 11.1 g/m*3 16.3 C 0 km/h
70 21-08-2009 13:59:56 16.7 C 11.37 g/m*3 16.7 C 0 km/h
71 21-08-2009 14:11:55 17.4 C 10.82 g/m*3 17.4 C 0 km/h
72 21-08-2009 14:23:55 17.5 C 10.59 g/m*3 17.5 C 0 km/h
73 21-08-2009 14:35:55 17.8 C 10.32 g/m*3 17.8 C 0 km/h
74 21-08-2009 14:47:55 18.9 C 10.53 g/m*3 18.9 C 0 km/h
75 21-08-2009 14:59:55 19.1 C 10 g/m*3 19.1 C 0 km/h
Sensor: Nr:Datum:Temp:Abs-Feuchte:Windchill:Wind:
Aussen-T/F 76 21-08-2009 15:11:55 19.6 C 9.96 g/m*3 19.6 C 0 km/h
77 21-08-2009 15:23:54 20.2 C 9.97 g/m*3 20.2 C 0 km/h
78 21-08-2009 15:35:54 21.1 C 9.95 g/m*3 21.1 C 0 km/h
79 21-08-2009 15:47:54 22.5 C 9.99 g/m*3 22.5 C 0 km/h
80 21-08-2009 15:59:54 23.7 C 9.2 g/m*3 23.7 C 0 km/h
81 21-08-2009 16:11:54 24.9 C 8.47 g/m*3 24.9 C 0 km/h
82 21-08-2009 16:23:54 24.5 C 8.06 g/m*3 24.5 C 0 km/h
83 21-08-2009 16:35:54 25.7 C 8.14 g/m*3 25.7 C 0 km/h
84 21-08-2009 16:47:54 26 C 7.55 g/m*3 26 C 0 km/h
85 21-08-2009 16:59:54 26.3 C 8.42 g/m*3 26.3 C 0 km/h
86 21-08-2009 17:11:53 27.5 C 7.94 g/m*3 27.5 C 0 km/h
87 21-08-2009 17:23:54 28 C 8.16 g/m*3 28 C 0 km/h
88 21-08-2009 17:35:53 27.6 C 7.45 g/m*3 27.6 C 0 km/h
89 21-08-2009 17:47:53 27.4 C 7.89 g/m*3 27.4 C 0 km/h
90 21-08-2009 17:59:54 26.9 C 7.93 g/m*3 26.9 C 0 km/h
91 21-08-2009 18:11:53 27.5 C 7.94 g/m*3 27.5 C 0 km/h
92 21-08-2009 18:23:53 26.9 C 7.93 g/m*3 26.9 C 0 km/h
93 21-08-2009 18:35:53 25.5 C 7.81 g/m*3 25.5 C 0 km/h
94 21-08-2009 18:47:52 25.4 C 8.24 g/m*3 25.4 C 0 km/h
95 21-08-2009 18:59:52 25.7 C 8.14 g/m*3 25.7 C 0 km/h
96 21-08-2009 19:11:53 26 C 8.03 g/m*3 26 C 0 km/h
97 21-08-2009 19:23:52 25.9 C 8.47 g/m*3 25.9 C 0 km/h
98 21-08-2009 19:35:52 25.7 C 8.86 g/m*3 25.7 C 0 km/h
99 21-08-2009 19:47:52 24.9 C 8.7 g/m*3 24.9 C 0 km/h
100 21-08-2009 19:59:52 23.3 C 8.99 g/m*3 23.3 C 0 km/h
Sensor: Nr:Datum:Temp:Abs-Feuchte:Windchill:Wind:
Aussen-T/F 101 21-08-2009 20:11:52 22.2 C 9.23 g/m*3 22.2 C 0 km/h
102 21-08-2009 20:23:52 21 C 9.34 g/m*3 21 C 0 km/h
103 21-08-2009 20:35:52 20 C 9.33 g/m*3 20 C 0 km/h
104 21-08-2009 20:47:51 19.8 C 9.91 g/m*3 19.8 C 0 km/h
105 21-08-2009 20:59:51 19.5 C 9.9 g/m*3 19.5 C 0 km/h
106 21-08-2009 21:11:51 19.2 C 9.73 g/m*3 19.2 C 0 km/h
107 21-08-2009 21:23:51 18.8 C 10.15 g/m*3 18.8 C 0 km/h
108 21-08-2009 21:35:52 18.6 C 10.03 g/m*3 18.6 C 0 km/h
109 21-08-2009 21:47:51 18.5 C 10.13 g/m*3 18.5 C 0 km/h
110 21-08-2009 21:59:51 18.1 C 9.89 g/m*3 18.1 C 0 km/h
111 21-08-2009 22:11:50 17.9 C 10.08 g/m*3 17.9 C 0 km/h
112 21-08-2009 22:23:51 17.7 C 10.11 g/m*3 17.7 C 0 km/h
113 21-08-2009 22:35:51 17.5 C 10.29 g/m*3 17.5 C 0 km/h
114 21-08-2009 22:47:50 17.3 C 10.16 g/m*3 17.3 C 0 km/h
115 21-08-2009 22:59:50 17.1 C 10.04 g/m*3 17.1 C 0 km/h
116 21-08-2009 23:12:51 17 C 10.13 g/m*3 17 C 0 km/h
117 21-08-2009 23:24:51 16.9 C 10.21 g/m*3 16.9 C 0 km/h
118 21-08-2009 23:36:51 16.8 C 10.29 g/m*3 16.8 C 0 km/h
119 21-08-2009 23:48:51 16.5 C 10.11 g/m*3 16.5 C 0 km/h
120 22-08-2009 00:00:51 16.3 C 10.13 g/m*3 16.3 C 0 km/h
121 22-08-2009 00:12:51 16 C 9.95 g/m*3 16 C 0 km/h
122 22-08-2009 00:24:51 15.9 C 10.16 g/m*3 15.9 C 0 km/h
123 22-08-2009 00:36:51 15.8 C 10.1 g/m*3 15.8 C 0 km/h
124 22-08-2009 00:48:51 15.8 C 10.1 g/m*3 15.8 C 0 km/h
125 22-08-2009 01:00:51 15.6 C 10.11 g/m*3 15.6 C 0 km/h
Sensor: Nr:Datum:Temp:Abs-Feuchte:Windchill:Wind:
Aussen-T/F 126 22-08-2009 01:12:51 15.6 C 10.24 g/m*3 15.6 C 0 km/h
127 22-08-2009 01:24:51 15.3 C 10.19 g/m*3 15.3 C 0 km/h
128 22-08-2009 01:36:51 15.1 C 10.06 g/m*3 15.1 C 0 km/h
129 22-08-2009 01:48:51 15 C 10.13 g/m*3 15 C 0 km/h
130 22-08-2009 02:00:51 14.8 C 10.26 g/m*3 14.8 C 0 km/h
131 22-08-2009 02:12:51 14.7 C 10.32 g/m*3 14.7 C 0 km/h
132 22-08-2009 02:24:52 14.7 C 10.2 g/m*3 14.7 C 0 km/h
133 22-08-2009 02:36:52 14.4 C 10.01 g/m*3 14.4 C 0 km/h
134 22-08-2009 02:48:52 14.3 C 10.2 g/m*3 14.3 C 0 km/h
135 22-08-2009 03:00:52 14.1 C 10.19 g/m*3 14.1 C 0 km/h
136 22-08-2009 03:12:52 13.9 C 10.19 g/m*3 13.9 C 0 km/h
137 22-08-2009 03:24:52 14 C 10.13 g/m*3 14 C 0 km/h
138 22-08-2009 03:36:52 14 C 10.13 g/m*3 14 C 0 km/h
139 22-08-2009 03:48:52 13.9 C 10.07 g/m*3 13.9 C 0 km/h
140 22-08-2009 04:00:52 13.8 C 10.01 g/m*3 13.8 C 0 km/h
141 22-08-2009 04:12:52 13.7 C 9.83 g/m*3 13.7 C 0 km/h
142 22-08-2009 04:24:52 13.5 C 9.71 g/m*3 13.5 C 0 km/h
143 22-08-2009 04:36:52 13.3 C 9.82 g/m*3 13.3 C 0 km/h
144 22-08-2009 04:48:52 13.2 C 9.87 g/m*3 13.2 C 0 km/h
145 22-08-2009 05:00:52 13.1 C 9.81 g/m*3 13.1 C 0 km/h
146 22-08-2009 05:12:52 13.2 C 9.87 g/m*3 13.2 C 0 km/h
147 22-08-2009 05:24:52 13.2 C 9.87 g/m*3 13.2 C 0 km/h
148 22-08-2009 05:36:52 13.1 C 9.7 g/m*3 13.1 C 0 km/h
149 22-08-2009 05:48:52 13 C 9.53 g/m*3 13 C 0 km/h
150 22-08-2009 06:00:52 13 C 9.53 g/m*3 13 C 0 km/h
Sensor: Nr:Datum:Temp:Abs-Feuchte:Windchill:Wind:
Aussen-T/F 151 22-08-2009 06:12:52 13 C 9.64 g/m*3 13 C 0 km/h
152 22-08-2009 06:24:53 13.1 C 9.59 g/m*3 13.1 C 0 km/h
153 22-08-2009 06:36:53 13.1 C 9.59 g/m*3 13.1 C 0 km/h
154 22-08-2009 06:48:53 13.3 C 9.7 g/m*3 13.3 C 0 km/h
155 22-08-2009 07:00:53 13.2 C 9.53 g/m*3 13.2 C 0 km/h
156 22-08-2009 07:12:53 13.1 C 9.47 g/m*3 13.1 C 0 km/h
157 22-08-2009 07:24:53 13.1 C 9.47 g/m*3 13.1 C 0 km/h
158 22-08-2009 07:36:53 13.4 C 9.65 g/m*3 13.4 C 0 km/h
159 22-08-2009 07:48:53 13.6 C 9.77 g/m*3 13.6 C 0 km/h
160 22-08-2009 08:00:53 13.8 C 9.77 g/m*3 13.8 C 0 km/h
161 22-08-2009 08:12:53 14.1 C 9.83 g/m*3 14.1 C 0 km/h
162 22-08-2009 08:24:53 14.5 C 9.7 g/m*3 14.5 C 0 km/h
163 22-08-2009 08:36:53 14.6 C 9.51 g/m*3 14.6 C 0 km/h
164 22-08-2009 08:48:53 15.1 C 9.55 g/m*3 15.1 C 0 km/h
165 22-08-2009 09:00:53 15.6 C 9.58 g/m*3 15.6 C 0 km/h
166 22-08-2009 09:12:53 16.2 C 9.52 g/m*3 16.2 C 0 km/h
167 22-08-2009 09:24:51 16.4 C 9.21 g/m*3 16.4 C 0 km/h
168 22-08-2009 09:36:51 16.9 C 9.35 g/m*3 16.9 C 0 km/h
169 22-08-2009 09:48:50 16.7 C 9.52 g/m*3 16.7 C 0 km/h
170 22-08-2009 10:00:51 16.6 C 9.46 g/m*3 16.6 C 0 km/h
171 22-08-2009 10:12:51 17.5 C 9.84 g/m*3 17.5 C 0 km/h
172 22-08-2009 10:24:50 18.2 C 9.64 g/m*3 18.2 C 0 km/h
173 22-08-2009 10:36:50 19.2 C 9.56 g/m*3 19.2 C 0 km/h
174 22-08-2009 10:48:50 19.8 C 9.39 g/m*3 19.8 C 0 km/h
175 22-08-2009 11:00:50 20.5 C 9.43 g/m*3 20.5 C 0 km/h
Sensor: Nr:Datum:Temp:Abs-Feuchte:Windchill:Wind:
Aussen-T/F 176 22-08-2009 11:12:50 21 C 9.16 g/m*3 21 C 0 km/h
177 22-08-2009 11:24:49 21.4 C 9.19 g/m*3 21.4 C 0 km/h
178 22-08-2009 11:36:49 21.6 C 8.91 g/m*3 21.6 C 0 km/h
179 22-08-2009 11:48:49 22 C 8.93 g/m*3 22 C 0 km/h
180 22-08-2009 12:00:49 22 C 8.73 g/m*3 22 C 0 km/h
181 22-08-2009 12:12:49 21.8 C 9.02 g/m*3 21.8 C 0 km/h
182 22-08-2009 12:24:49 22.6 C 8.44 g/m*3 22.6 C 0 km/h
183 22-08-2009 12:36:49 22.8 C 8.13 g/m*3 22.8 C 0 km/h
184 22-08-2009 12:48:48 22.9 C 7.97 g/m*3 22.9 C 0 km/h
185 22-08-2009 13:00:48 22.9 C 7.77 g/m*3 22.9 C 0 km/h
186 22-08-2009 13:12:48 24 C 7.4 g/m*3 24 C 0 km/h
187 22-08-2009 13:24:49 24.8 C 7.97 g/m*3 24.8 C 0 km/h
188 22-08-2009 13:36:48 24.9 C 7.55 g/m*3 24.9 C 0 km/h
189 22-08-2009 13:48:48 25.5 C 7.34 g/m*3 25.5 C 0 km/h
190 22-08-2009 14:00:48 25.3 C 7.26 g/m*3 25.3 C 0 km/h
191 22-08-2009 14:12:48 25.9 C 6.54 g/m*3 25.9 C 0 km/h
192 22-08-2009 14:24:48 26 C 6.33 g/m*3 26 C 0 km/h
193 22-08-2009 14:36:48 26.2 C 6.4 g/m*3 26.2 C 0 km/h
194 22-08-2009 14:48:50 26.9 C 6.4 g/m*3 26.9 C 0 km/h
195 22-08-2009 15:00:02 27.2 C 6.51 g/m*3 27.2 C 0 km/h
196 22-08-2009 15:12:02 28.2 C 5.77 g/m*3 28.2 C 0 km/h
197 22-08-2009 15:24:01 26.8 C 5.85 g/m*3 26.8 C 0 km/h
198 22-08-2009 15:36:02 25.6 C 6.19 g/m*3 25.6 C 0 km/h
199 22-08-2009 15:48:01 25.5 C 5.92 g/m*3 25.5 C 0 km/h
200 22-08-2009 16:00:01 26.6 C 6.04 g/m*3 26.6 C 0 km/h
Sensor: Nr:Datum:Temp:Abs-Feuchte:Windchill:Wind:
Aussen-T/F 201 22-08-2009 16:12:02 28.4 C 5.84 g/m*3 28.4 C 0 km/h
202 22-08-2009 16:24:01 29.2 C 5.81 g/m*3 29.2 C 0 km/h
203 22-08-2009 16:36:02 30.3 C 6.16 g/m*3 30.3 C 0 km/h
204 22-08-2009 16:48:01 30.6 C 6.26 g/m*3 30.6 C 0 km/h
205 22-08-2009 17:00:01 26.8 C 5.09 g/m*3 26.8 C 0 km/h
206 22-08-2009 17:12:02 27.5 C 5.56 g/m*3 27.5 C 0 km/h
207 22-08-2009 17:24:01 29.2 C 5.81 g/m*3 29.2 C 0 km/h
208 22-08-2009 17:36:02 28.5 C 5.59 g/m*3 28.5 C 0 km/h
209 22-08-2009 17:48:01 28.7 C 5.65 g/m*3 28.7 C 0 km/h
210 22-08-2009 18:00:01 28.9 C 5.71 g/m*3 28.9 C 0 km/h
211 22-08-2009 18:12:02 28.5 C 5.59 g/m*3 28.5 C 0 km/h
212 22-08-2009 18:24:01 29.6 C 5.94 g/m*3 29.6 C 0 km/h
213 22-08-2009 18:36:02 28.4 C 5.56 g/m*3 28.4 C 0 km/h
214 22-08-2009 18:48:02 27.4 C 5.26 g/m*3 27.4 C 0 km/h
215 22-08-2009 19:00:02 27.4 C 5.53 g/m*3 27.4 C 0 km/h
216 22-08-2009 19:12:01 26.8 C 5.6 g/m*3 26.8 C 0 km/h
217 22-08-2009 19:24:02 26.7 C 6.07 g/m*3 26.7 C 0 km/h
218 22-08-2009 19:36:02 26.2 C 6.15 g/m*3 26.2 C 0 km/h
219 22-08-2009 19:48:02 26 C 6.82 g/m*3 26 C 0 km/h
220 22-08-2009 20:00:02 25.3 C 6.79 g/m*3 25.3 C 0 km/h
221 22-08-2009 20:12:03 24.3 C 6.86 g/m*3 24.3 C 0 km/h
222 22-08-2009 20:24:02 23.2 C 6.65 g/m*3 23.2 C 0 km/h
223 22-08-2009 20:36:03 22.1 C 6.64 g/m*3 22.1 C 0 km/h
224 22-08-2009 20:48:02 21.4 C 6.56 g/m*3 21.4 C 0 km/h
225 22-08-2009 21:00:02 20.8 C 6.52 g/m*3 20.8 C 0 km/h
Sensor: Nr:Datum:Temp:Abs-Feuchte:Windchill:Wind:
Aussen-T/F 226 22-08-2009 21:12:02 20 C 6.39 g/m*3 20 C 0 km/h
227 22-08-2009 21:24:02 19.7 C 6.79 g/m*3 19.7 C 0 km/h
228 22-08-2009 21:36:03 19.6 C 6.75 g/m*3 19.6 C 0 km/h
229 22-08-2009 21:48:02 19.5 C 6.88 g/m*3 19.5 C 0 km/h
230 22-08-2009 22:00:03 19.1 C 6.88 g/m*3 19.1 C 0 km/h
231 22-08-2009 22:12:01 18.7 C 6.88 g/m*3 18.7 C 0 km/h
232 22-08-2009 22:24:02 18.3 C 7.04 g/m*3 18.3 C 0 km/h
233 22-08-2009 22:36:02 18.1 C 6.95 g/m*3 18.1 C 0 km/h
234 22-08-2009 22:48:02 17.9 C 7.02 g/m*3 17.9 C 0 km/h
235 22-08-2009 23:00:02 17.6 C 6.9 g/m*3 17.6 C 0 km/h
236 22-08-2009 23:12:02 17.4 C 6.97 g/m*3 17.4 C 0 km/h
237 22-08-2009 23:24:02 17.2 C 7.03 g/m*3 17.2 C 0 km/h
238 22-08-2009 23:36:02 17 C 7.09 g/m*3 17 C 0 km/h
239 22-08-2009 23:48:01 16.8 C 7.29 g/m*3 16.8 C 0 km/h
240 23-08-2009 00:00:01 16.4 C 7.4 g/m*3 16.4 C 0 km/h
241 23-08-2009 00:12:02 16.1 C 7.4 g/m*3 16.1 C 0 km/h
242 23-08-2009 00:25:03 15.8 C 7.54 g/m*3 15.8 C 0 km/h
243 23-08-2009 00:37:03 15.7 C 7.36 g/m*3 15.7 C 0 km/h
244 23-08-2009 00:49:03 15.4 C 7.49 g/m*3 15.4 C 0 km/h
245 23-08-2009 01:01:03 15.2 C 7.66 g/m*3 15.2 C 0 km/h
246 23-08-2009 01:13:03 15 C 7.69 g/m*3 15 C 0 km/h
247 23-08-2009 01:25:03 14.8 C 7.73 g/m*3 14.8 C 0 km/h
248 23-08-2009 01:37:03 14.7 C 7.68 g/m*3 14.7 C 0 km/h
249 23-08-2009 01:49:03 14.4 C 7.54 g/m*3 14.4 C 0 km/h
250 23-08-2009 02:01:03 14.2 C 7.45 g/m*3 14.2 C 0 km/h
Sensor: Nr:Datum:Temp:Abs-Feuchte:Windchill:Wind:
Aussen-T/F 251 23-08-2009 02:13:03 14.2 C 7.69 g/m*3 14.2 C 0 km/h
252 23-08-2009 02:25:03 14 C 7.84 g/m*3 14 C 0 km/h
253 23-08-2009 02:37:03 13.7 C 7.82 g/m*3 13.7 C 0 km/h
254 23-08-2009 02:49:03 13.7 C 7.82 g/m*3 13.7 C 0 km/h
255 23-08-2009 03:01:03 13.5 C 7.95 g/m*3 13.5 C 0 km/h
256 23-08-2009 03:13:04 13.4 C 7.9 g/m*3 13.4 C 0 km/h
257 23-08-2009 03:25:04 13.2 C 7.92 g/m*3 13.2 C 0 km/h
258 23-08-2009 03:37:04 13.1 C 7.99 g/m*3 13.1 C 0 km/h
259 23-08-2009 03:49:04 13 C 8.05 g/m*3 13 C 0 km/h
260 23-08-2009 04:01:04 12.9 C 8.23 g/m*3 12.9 C 0 km/h
261 23-08-2009 04:13:04 12.7 C 8.13 g/m*3 12.7 C 0 km/h
262 23-08-2009 04:25:04 12.6 C 8.19 g/m*3 12.6 C 0 km/h
263 23-08-2009 04:37:04 12.4 C 8.09 g/m*3 12.4 C 0 km/h
264 23-08-2009 04:49:04 12.2 C 7.99 g/m*3 12.2 C 0 km/h
265 23-08-2009 05:01:04 12.3 C 8.14 g/m*3 12.3 C 0 km/h
266 23-08-2009 05:13:04 12 C 8.1 g/m*3 12 C 0 km/h
267 23-08-2009 05:25:04 12 C 8.1 g/m*3 12 C 0 km/h
268 23-08-2009 05:37:04 11.8 C 8.1 g/m*3 11.8 C 0 km/h
269 23-08-2009 05:49:04 11.7 C 8.16 g/m*3 11.7 C 0 km/h
270 23-08-2009 06:01:04 11.6 C 8.11 g/m*3 11.6 C 0 km/h
271 23-08-2009 06:13:04 11.5 C 8.06 g/m*3 11.5 C 0 km/h
272 23-08-2009 06:25:04 11.4 C 8.01 g/m*3 11.4 C 0 km/h
273 23-08-2009 06:37:04 11.4 C 8.01 g/m*3 11.4 C 0 km/h
274 23-08-2009 06:49:04 11.3 C 8.06 g/m*3 11.3 C 0 km/h
275 23-08-2009 07:01:04 11.4 C 8.21 g/m*3 11.4 C 0 km/h
Sensor: Nr:Datum:Temp:Abs-Feuchte:Windchill:Wind:
Aussen-T/F 276 23-08-2009 07:13:05 11.4 C 8.11 g/m*3 11.4 C 0 km/h
277 23-08-2009 07:25:05 11.5 C 8.16 g/m*3 11.5 C 0 km/h
278 23-08-2009 07:37:05 11.6 C 8.21 g/m*3 11.6 C 0 km/h
279 23-08-2009 07:49:05 11.7 C 8.26 g/m*3 11.7 C 0 km/h
280 23-08-2009 08:01:05 11.9 C 8.47 g/m*3 11.9 C 0 km/h
281 23-08-2009 08:13:05 12.1 C 8.47 g/m*3 12.1 C 0 km/h
282 23-08-2009 08:25:05 12.4 C 8.63 g/m*3 12.4 C 0 km/h
283 23-08-2009 08:37:05 12.7 C 8.79 g/m*3 12.7 C 0 km/h
284 23-08-2009 08:49:05 13 C 8.73 g/m*3 13 C 0 km/h
285 23-08-2009 09:01:05 13.5 C 8.89 g/m*3 13.5 C 0 km/h
286 23-08-2009 09:13:05 13.8 C 8.82 g/m*3 13.8 C 0 km/h
287 23-08-2009 09:25:03 14.2 C 9.04 g/m*3 14.2 C 0 km/h
288 23-08-2009 09:37:02 14.7 C 9.07 g/m*3 14.7 C 0 km/h
289 23-08-2009 09:49:02 15.3 C 9.14 g/m*3 15.3 C 0 km/h
290 23-08-2009 10:01:01 16 C 9.26 g/m*3 16 C 0 km/h
291 23-08-2009 10:13:01 16.6 C 9.32 g/m*3 16.6 C 0 km/h
292 23-08-2009 10:25:01 17.2 C 9.23 g/m*3 17.2 C 0 km/h
293 23-08-2009 10:37:02 17.7 C 9.35 g/m*3 17.7 C 0 km/h
294 23-08-2009 10:49:02 17.7 C 9.51 g/m*3 17.7 C 0 km/h
295 23-08-2009 11:01:01 18.7 C 9.77 g/m*3 18.7 C 0 km/h
296 23-08-2009 11:13:01 19.7 C 9.17 g/m*3 19.7 C 0 km/h
297 23-08-2009 11:25:02 20.8 C 8.51 g/m*3 20.8 C 0 km/h
298 23-08-2009 11:37:02 21.6 C 8.16 g/m*3 21.6 C 0 km/h
299 23-08-2009 11:49:02 22.1 C 8.2 g/m*3 22.1 C 0 km/h
300 23-08-2009 12:01:02 22.6 C 7.83 g/m*3 22.6 C 0 km/h
Sensor: Nr:Datum:Temp:Abs-Feuchte:Windchill:Wind:
Aussen-T/F 301 23-08-2009 12:13:02 23.1 C 7.44 g/m*3 23.1 C 0 km/h
302 23-08-2009 12:25:02 23.4 C 6.94 g/m*3 23.4 C 0 km/h
303 23-08-2009 12:37:02 23.7 C 6.84 g/m*3 23.7 C 0 km/h
304 23-08-2009 12:49:02 24.2 C 6.6 g/m*3 24.2 C 0 km/h
305 23-08-2009 13:01:03 24.5 C 6.49 g/m*3 24.5 C 0 km/h
306 23-08-2009 13:13:03 24.9 C 6.18 g/m*3 24.9 C 0 km/h
307 23-08-2009 13:25:02 25.5 C 6.16 g/m*3 25.5 C 0 km/h
308 23-08-2009 13:37:02 25.7 C 5.99 g/m*3 25.7 C 0 km/h
309 23-08-2009 13:49:01 26.1 C 5.63 g/m*3 26.1 C 0 km/h
310 23-08-2009 14:01:02 26.3 C 5.45 g/m*3 26.3 C 0 km/h
311 23-08-2009 14:13:02 26.6 C 5.79 g/m*3 26.6 C 0 km/h
312 23-08-2009 14:25:01 27.1 C 5.43 g/m*3 27.1 C 0 km/h
313 23-08-2009 14:37:01 27.3 C 5.49 g/m*3 27.3 C 0 km/h
314 23-08-2009 14:49:01 27.7 C 5.62 g/m*3 27.7 C 0 km/h
315 23-08-2009 15:01:02 27.8 C 5.65 g/m*3 27.8 C 0 km/h
316 23-08-2009 15:13:02 28.3 C 5.81 g/m*3 28.3 C 0 km/h
317 23-08-2009 15:25:01 28.4 C 5.56 g/m*3 28.4 C 0 km/h
318 23-08-2009 15:37:01 28.2 C 5.5 g/m*3 28.2 C 0 km/h
319 23-08-2009 15:49:01 29.2 C 5.81 g/m*3 29.2 C 0 km/h
320 23-08-2009 16:01:01 29.7 C 5.97 g/m*3 29.7 C 0 km/h
321 23-08-2009 16:13:01 30.2 C 6.13 g/m*3 30.2 C 0 km/h
322 23-08-2009 16:25:01 30.1 C 6.1 g/m*3 30.1 C 0 km/h
323 23-08-2009 16:37:01 30.5 C 6.23 g/m*3 30.5 C 0 km/h
324 23-08-2009 16:49:01 30.6 C 6.26 g/m*3 30.6 C 0 km/h
325 23-08-2009 17:01:02 30.8 C 6.33 g/m*3 30.8 C 0 km/h
Sensor: Nr:Datum:Temp:Abs-Feuchte:Windchill:Wind:
Aussen-T/F 326 23-08-2009 17:13:03 30.9 C 6.37 g/m*3 30.9 C 0 km/h
327 23-08-2009 17:25:01 31.1 C 6.43 g/m*3 31.1 C 0 km/h
328 23-08-2009 17:37:01 31 C 6.4 g/m*3 31 C 0 km/h
329 23-08-2009 17:49:01 31 C 6.4 g/m*3 31 C 0 km/h
330 23-08-2009 18:01:01 31.1 C 6.43 g/m*3 31.1 C 0 km/h
331 23-08-2009 18:13:01 31.2 C 6.47 g/m*3 31.2 C 0 km/h
332 23-08-2009 18:25:01 31.1 C 6.43 g/m*3 31.1 C 0 km/h
333 23-08-2009 18:37:01 30.6 C 6.26 g/m*3 30.6 C 0 km/h
334 23-08-2009 18:49:01 30 C 6.06 g/m*3 30 C 0 km/h
335 23-08-2009 19:01:01 30.6 C 6.26 g/m*3 30.6 C 0 km/h
336 23-08-2009 19:13:01 30.7 C 6.3 g/m*3 30.7 C 0 km/h
337 23-08-2009 19:25:02 30.1 C 6.1 g/m*3 30.1 C 0 km/h
338 23-08-2009 19:37:01 30 C 6.06 g/m*3 30 C 0 km/h
339 23-08-2009 19:49:02 28.8 C 5.68 g/m*3 28.8 C 0 km/h
340 23-08-2009 20:01:02 27.9 C 5.95 g/m*3 27.9 C 0 km/h
341 23-08-2009 20:13:02 26.1 C 6.12 g/m*3 26.1 C 0 km/h
342 23-08-2009 20:25:02 24.8 C 6.37 g/m*3 24.8 C 0 km/h
343 23-08-2009 20:37:02 23.7 C 6.42 g/m*3 23.7 C 0 km/h
344 23-08-2009 20:49:02 22.9 C 6.34 g/m*3 22.9 C 0 km/h
345 23-08-2009 21:01:01 22.4 C 6.36 g/m*3 22.4 C 0 km/h
346 23-08-2009 21:13:01 21.7 C 6.68 g/m*3 21.7 C 0 km/h
347 23-08-2009 21:25:01 21.3 C 6.52 g/m*3 21.3 C 0 km/h
348 23-08-2009 21:37:02 21 C 6.59 g/m*3 21 C 0 km/h
349 23-08-2009 21:49:02 20.7 C 6.66 g/m*3 20.7 C 0 km/h
350 23-08-2009 22:01:02 20.4 C 6.9 g/m*3 20.4 C 0 km/h
Sensor: Nr:Datum:Temp:Abs-Feuchte:Windchill:Wind:
Aussen-T/F 351 23-08-2009 22:13:02 20.1 C 6.95 g/m*3 20.1 C 0 km/h
352 23-08-2009 22:25:02 19.8 C 7 g/m*3 19.8 C 0 km/h
353 23-08-2009 22:37:02 19.5 C 7.22 g/m*3 19.5 C 0 km/h
354 23-08-2009 22:49:02 19.3 C 7.13 g/m*3 19.3 C 0 km/h
355 23-08-2009 23:01:02 19.1 C 7.05 g/m*3 19.1 C 0 km/h
356 23-08-2009 23:13:02 18.9 C 7.29 g/m*3 18.9 C 0 km/h
357 23-08-2009 23:25:02 18.7 C 7.2 g/m*3 18.7 C 0 km/h
358 23-08-2009 23:37:02 18.6 C 7.16 g/m*3 18.6 C 0 km/h
359 23-08-2009 23:49:02 18.3 C 7.04 g/m*3 18.3 C 0 km/h
360 24-08-2009 00:01:02 18.1 C 7.11 g/m*3 18.1 C 0 km/h
361 24-08-2009 00:13:03 17.9 C 7.33 g/m*3 17.9 C 0 km/h
362 24-08-2009 00:25:02 17.8 C 7.29 g/m*3 17.8 C 0 km/h
363 24-08-2009 00:37:02 17.4 C 7.26 g/m*3 17.4 C 0 km/h
364 24-08-2009 00:49:01 17.4 C 7.26 g/m*3 17.4 C 0 km/h
365 24-08-2009 01:01:02 17.2 C 7.47 g/m*3 17.2 C 0 km/h
366 24-08-2009 01:13:02 17 C 7.38 g/m*3 17 C 0 km/h
367 24-08-2009 01:25:01 16.9 C 7.48 g/m*3 16.9 C 0 km/h
368 24-08-2009 01:37:02 16.6 C 7.63 g/m*3 16.6 C 0 km/h
369 24-08-2009 01:49:02 16.3 C 7.49 g/m*3 16.3 C 0 km/h
370 24-08-2009 02:01:02 16.1 C 7.54 g/m*3 16.1 C 0 km/h
371 24-08-2009 02:13:02 15.9 C 7.72 g/m*3 15.9 C 0 km/h
372 24-08-2009 02:25:02 15.8 C 7.81 g/m*3 15.8 C 0 km/h
373 24-08-2009 02:37:02 15.5 C 7.67 g/m*3 15.5 C 0 km/h
374 24-08-2009 02:50:03 15.4 C 7.75 g/m*3 15.4 C 0 km/h
375 24-08-2009 03:02:03 15.3 C 7.7 g/m*3 15.3 C 0 km/h
Sensor: Nr:Datum:Temp:Abs-Feuchte:Windchill:Wind:
Aussen-T/F 376 24-08-2009 03:14:04 15 C 7.82 g/m*3 15 C 0 km/h
377 24-08-2009 03:26:04 14.8 C 7.85 g/m*3 14.8 C 0 km/h
378 24-08-2009 03:38:02 14.7 C 8.31 g/m*3 14.7 C 0 km/h
379 24-08-2009 03:50:02 14.3 C 8.11 g/m*3 14.3 C 0 km/h
380 24-08-2009 04:02:02 14.2 C 8.06 g/m*3 14.2 C 0 km/h
381 24-08-2009 04:14:02 14 C 8.08 g/m*3 14 C 0 km/h
382 24-08-2009 04:26:02 13.9 C 8.15 g/m*3 13.9 C 0 km/h
383 24-08-2009 04:38:02 13.7 C 8.05 g/m*3 13.7 C 0 km/h
384 24-08-2009 04:50:01 13.5 C 8.19 g/m*3 13.5 C 0 km/h
385 24-08-2009 05:02:02 13.4 C 8.37 g/m*3 13.4 C 0 km/h
386 24-08-2009 05:14:02 13.3 C 8.43 g/m*3 13.3 C 0 km/h
387 24-08-2009 05:26:01 13.2 C 8.38 g/m*3 13.2 C 0 km/h
388 24-08-2009 05:38:02 13.1 C 8.33 g/m*3 13.1 C 0 km/h
389 24-08-2009 05:50:02 13 C 8.39 g/m*3 13 C 0 km/h
390 24-08-2009 06:02:02 12.9 C 8.45 g/m*3 12.9 C 0 km/h
391 24-08-2009 06:14:02 12.8 C 8.4 g/m*3 12.8 C 0 km/h
392 24-08-2009 06:26:01 12.6 C 8.3 g/m*3 12.6 C 0 km/h
393 24-08-2009 06:38:02 12.7 C 8.35 g/m*3 12.7 C 0 km/h
394 24-08-2009 06:50:01 12.5 C 8.25 g/m*3 12.5 C 0 km/h
395 24-08-2009 07:02:02 12.6 C 8.41 g/m*3 12.6 C 0 km/h
396 24-08-2009 07:14:02 12.7 C 8.57 g/m*3 12.7 C 0 km/h
397 24-08-2009 07:26:02 12.8 C 8.62 g/m*3 12.8 C 0 km/h
398 24-08-2009 07:38:02 12.9 C 8.68 g/m*3 12.9 C 0 km/h
399 24-08-2009 07:50:02 12.9 C 8.79 g/m*3 12.9 C 0 km/h
400 24-08-2009 08:02:02 13.1 C 8.79 g/m*3 13.1 C 0 km/h
Sensor: Nr:Datum:Temp:Abs-Feuchte:Windchill:Wind:
Aussen-T/F 401 24-08-2009 08:14:02 13.2 C 8.84 g/m*3 13.2 C 0 km/h
402 24-08-2009 08:26:02 13.6 C 9.06 g/m*3 13.6 C 0 km/h
403 24-08-2009 08:38:01 13.8 C 9.17 g/m*3 13.8 C 0 km/h
404 24-08-2009 08:50:02 14.2 C 9.4 g/m*3 14.2 C 0 km/h
405 24-08-2009 09:02:01 14.6 C 9.51 g/m*3 14.6 C 0 km/h
406 24-08-2009 09:14:01 15 C 9.36 g/m*3 15 C 0 km/h
407 24-08-2009 09:26:02 15.5 C 9.52 g/m*3 15.5 C 0 km/h
408 24-08-2009 09:38:01 16.5 C 9.55 g/m*3 16.5 C 0 km/h
409 24-08-2009 09:50:02 17.2 C 9.52 g/m*3 17.2 C 0 km/h
410 24-08-2009 10:02:02 17.9 C 9.62 g/m*3 17.9 C 0 km/h
411 24-08-2009 10:14:02 18.7 C 9.45 g/m*3 18.7 C 0 km/h
412 24-08-2009 10:26:02 19.4 C 9.51 g/m*3 19.4 C 0 km/h
413 24-08-2009 10:38:02 20.1 C 9.21 g/m*3 20.1 C 0 km/h
414 24-08-2009 10:50:02 20.7 C 9.36 g/m*3 20.7 C 0 km/h
415 24-08-2009 11:02:01 21.5 C 9.05 g/m*3 21.5 C 0 km/h
416 24-08-2009 11:14:01 22 C 8.93 g/m*3 22 C 0 km/h
417 24-08-2009 11:26:01 22.4 C 8.54 g/m*3 22.4 C 0 km/h
418 24-08-2009 11:38:02 22.9 C 8.99 g/m*3 22.9 C 0 km/h
419 24-08-2009 11:50:02 23.6 C 8.72 g/m*3 23.6 C 0 km/h
420 24-08-2009 12:02:02 23.9 C 8.44 g/m*3 23.9 C 0 km/h
421 24-08-2009 12:14:02 24 C 8.49 g/m*3 24 C 0 km/h
422 24-08-2009 12:26:01 24.9 C 8.47 g/m*3 24.9 C 0 km/h
423 24-08-2009 12:38:02 25.2 C 8.38 g/m*3 25.2 C 0 km/h
424 24-08-2009 12:50:02 25.2 C 8.15 g/m*3 25.2 C 0 km/h
425 24-08-2009 13:02:02 25.9 C 8.23 g/m*3 25.9 C 0 km/h
Sensor: Nr:Datum:Temp:Abs-Feuchte:Windchill:Wind:
Aussen-T/F 426 24-08-2009 13:14:02 26.7 C 8.1 g/m*3 26.7 C 0 km/h
427 24-08-2009 13:26:02 27.6 C 7.98 g/m*3 27.6 C 0 km/h
428 24-08-2009 13:38:02 28.2 C 8.25 g/m*3 28.2 C 0 km/h
429 24-08-2009 13:50:02 28.5 C 8.11 g/m*3 28.5 C 0 km/h
430 24-08-2009 14:02:02 28.8 C 8.24 g/m*3 28.8 C 0 km/h
431 24-08-2009 14:14:02 29.3 C 8.17 g/m*3 29.3 C 0 km/h
432 24-08-2009 14:26:02 29.9 C 8.14 g/m*3 29.9 C 0 km/h
433 24-08-2009 14:38:02 30.4 C 8.06 g/m*3 30.4 C 0 km/h
434 24-08-2009 14:50:02 30.6 C 7.83 g/m*3 30.6 C 0 km/h
435 24-08-2009 15:02:02 31 C 7.36 g/m*3 31 C 0 km/h
436 24-08-2009 15:14:02 31.2 C 6.79 g/m*3 31.2 C 0 km/h
437 24-08-2009 15:26:02 31.6 C 6.94 g/m*3 31.6 C 0 km/h
438 24-08-2009 15:38:02 32 C 6.75 g/m*3 32 C 0 km/h
439 24-08-2009 15:50:02 32.3 C 6.86 g/m*3 32.3 C 0 km/h
440 24-08-2009 16:02:02 32.6 C 6.97 g/m*3 32.6 C 0 km/h
441 24-08-2009 16:14:02 32.6 C 6.97 g/m*3 32.6 C 0 km/h
442 24-08-2009 16:26:02 32.5 C 6.93 g/m*3 32.5 C 0 km/h
443 24-08-2009 16:38:02 31.9 C 6.72 g/m*3 31.9 C 0 km/h
444 24-08-2009 16:50:02 31.9 C 6.72 g/m*3 31.9 C 0 km/h
445 24-08-2009 17:02:02 32.4 C 6.9 g/m*3 32.4 C 0 km/h
446 24-08-2009 17:14:02 32.9 C 7.08 g/m*3 32.9 C 0 km/h
447 24-08-2009 17:26:02 33 C 7.12 g/m*3 33 C 0 km/h
448 24-08-2009 17:38:02 33 C 7.12 g/m*3 33 C 0 km/h
449 24-08-2009 17:50:02 33.1 C 7.16 g/m*3 33.1 C 0 km/h
450 24-08-2009 18:02:02 33.1 C 7.16 g/m*3 33.1 C 0 km/h
Sensor: Nr:Datum:Temp:Abs-Feuchte:Windchill:Wind:
Aussen-T/F 451 24-08-2009 18:14:02 33.1 C 7.16 g/m*3 33.1 C 0 km/h
452 24-08-2009 18:26:02 33.1 C 7.16 g/m*3 33.1 C 0 km/h
453 24-08-2009 18:38:01 33.1 C 7.16 g/m*3 33.1 C 0 km/h
454 24-08-2009 18:50:02 32.9 C 7.08 g/m*3 32.9 C 0 km/h
455 24-08-2009 19:02:02 32.6 C 6.97 g/m*3 32.6 C 0 km/h
456 24-08-2009 19:14:02 32.1 C 7.13 g/m*3 32.1 C 0 km/h
457 24-08-2009 19:26:02 31.4 C 7.85 g/m*3 31.4 C 0 km/h
458 24-08-2009 19:38:01 30.6 C 8.46 g/m*3 30.6 C 0 km/h
459 24-08-2009 19:50:02 30.3 C 8.94 g/m*3 30.3 C 0 km/h
460 24-08-2009 20:02:01 29.7 C 9.25 g/m*3 29.7 C 0 km/h
461 24-08-2009 20:14:01 28.5 C 9.22 g/m*3 28.5 C 0 km/h
462 24-08-2009 20:26:02 27.5 C 9.26 g/m*3 27.5 C 0 km/h
463 24-08-2009 20:38:01 26.7 C 9.37 g/m*3 26.7 C 0 km/h
464 24-08-2009 20:50:03 26.1 C 9.55 g/m*3 26.1 C 0 km/h
465 24-08-2009 21:02:03 25.8 C 9.63 g/m*3 25.8 C 0 km/h
466 24-08-2009 21:14:03 25.6 C 9.76 g/m*3 25.6 C 0 km/h
467 24-08-2009 21:26:02 25.5 C 9.94 g/m*3 25.5 C 0 km/h
468 24-08-2009 21:38:03 25.5 C 9.94 g/m*3 25.5 C 0 km/h
469 24-08-2009 21:50:02 25.3 C 9.83 g/m*3 25.3 C 0 km/h
470 24-08-2009 22:02:01 25 C 9.9 g/m*3 25 C 0 km/h
471 24-08-2009 22:14:01 24.6 C 10.13 g/m*3 24.6 C 0 km/h
472 24-08-2009 22:26:02 24.2 C 9.9 g/m*3 24.2 C 0 km/h
473 24-08-2009 22:38:01 24 C 10.01 g/m*3 24 C 0 km/h
474 24-08-2009 22:50:02 24 C 10.01 g/m*3 24 C 0 km/h
475 24-08-2009 23:02:01 23.9 C 10.17 g/m*3 23.9 C 0 km/h
Sensor: Nr:Datum:Temp:Abs-Feuchte:Windchill:Wind:
Aussen-T/F 476 24-08-2009 23:14:01 23.6 C 10.42 g/m*3 23.6 C 0 km/h
477 24-08-2009 23:26:02 23.2 C 10.39 g/m*3 23.2 C 0 km/h
478 24-08-2009 23:38:02 23 C 10.07 g/m*3 23 C 0 km/h
479 24-08-2009 23:50:02 22.5 C 10.39 g/m*3 22.5 C 0 km/h
480 25-08-2009 00:02:02 22.2 C 10.01 g/m*3 22.2 C 0 km/h
481 25-08-2009 00:14:02 22.1 C 10.15 g/m*3 22.1 C 0 km/h
482 25-08-2009 00:26:02 22 C 9.9 g/m*3 22 C 0 km/h
483 25-08-2009 00:38:02 21.8 C 10.17 g/m*3 21.8 C 0 km/h
484 25-08-2009 00:50:01 21.4 C 9.75 g/m*3 21.4 C 0 km/h
485 25-08-2009 01:02:02 21.2 C 9.82 g/m*3 21.2 C 0 km/h
486 25-08-2009 01:14:02 21.2 C 10.01 g/m*3 21.2 C 0 km/h
487 25-08-2009 01:26:01 21 C 10.08 g/m*3 21 C 0 km/h
488 25-08-2009 01:38:02 20.6 C 10.02 g/m*3 20.6 C 0 km/h
489 25-08-2009 01:50:02 20.8 C 10.14 g/m*3 20.8 C 0 km/h
490 25-08-2009 02:02:02 20.9 C 10.2 g/m*3 20.9 C 0 km/h
491 25-08-2009 02:14:02 20.7 C 10.26 g/m*3 20.7 C 0 km/h
492 25-08-2009 02:26:02 20.6 C 10.2 g/m*3 20.6 C 0 km/h
493 25-08-2009 02:38:02 20.7 C 10.26 g/m*3 20.7 C 0 km/h
494 25-08-2009 02:50:01 20.8 C 10.5 g/m*3 20.8 C 0 km/h
495 25-08-2009 03:02:01 20.5 C 10.32 g/m*3 20.5 C 0 km/h
496 25-08-2009 03:14:02 20.5 C 10.5 g/m*3 20.5 C 0 km/h
497 25-08-2009 03:26:02 20.3 C 10.38 g/m*3 20.3 C 0 km/h
498 25-08-2009 03:38:01 20.2 C 10.32 g/m*3 20.2 C 0 km/h
499 25-08-2009 03:50:01 20 C 10.37 g/m*3 20 C 0 km/h
500 25-08-2009 04:02:02 20 C 10.37 g/m*3 20 C 0 km/h
Sensor: Nr:Datum:Temp:Abs-Feuchte:Windchill:Wind:
Aussen-T/F 501 25-08-2009 04:14:02 20 C 10.54 g/m*3 20 C 0 km/h
502 25-08-2009 04:26:01 19.9 C 10.65 g/m*3 19.9 C 0 km/h
503 25-08-2009 04:38:02 20 C 10.37 g/m*3 20 C 0 km/h
504 25-08-2009 04:50:01 20 C 10.37 g/m*3 20 C 0 km/h
505 25-08-2009 05:02:02 20 C 10.37 g/m*3 20 C 0 km/h
506 25-08-2009 05:14:02 19.7 C 10.7 g/m*3 19.7 C 0 km/h
507 25-08-2009 05:26:01 20.1 C 9.91 g/m*3 20.1 C 0 km/h
508 25-08-2009 05:38:01 20.3 C 9.67 g/m*3 20.3 C 0 km/h
509 25-08-2009 05:50:01 19.9 C 9.79 g/m*3 19.9 C 0 km/h
510 25-08-2009 06:02:02 19.6 C 9.96 g/m*3 19.6 C 0 km/h
511 25-08-2009 06:14:02 19.2 C 10.06 g/m*3 19.2 C 0 km/h
512 25-08-2009 06:26:01 19.1 C 10.33 g/m*3 19.1 C 0 km/h
513 25-08-2009 06:38:01 19.1 C 10.33 g/m*3 19.1 C 0 km/h
514 25-08-2009 06:50:01 19.2 C 10.22 g/m*3 19.2 C 0 km/h
515 25-08-2009 07:02:01 19.4 C 10.51 g/m*3 19.4 C 0 km/h
516 25-08-2009 07:14:01 19.6 C 10.47 g/m*3 19.6 C 0 km/h
517 25-08-2009 07:26:01 19.8 C 10.42 g/m*3 19.8 C 0 km/h
518 25-08-2009 07:38:01 20 C 10.2 g/m*3 20 C 0 km/h
519 25-08-2009 07:50:01 20.1 C 10.26 g/m*3 20.1 C 0 km/h
520 25-08-2009 08:02:01 20.2 C 10.32 g/m*3 20.2 C 0 km/h
521 25-08-2009 08:14:01 20.1 C 10.43 g/m*3 20.1 C 0 km/h
522 25-08-2009 08:26:02 20.3 C 10.73 g/m*3 20.3 C 0 km/h
523 25-08-2009 08:38:01 20.4 C 10.97 g/m*3 20.4 C 0 km/h
524 25-08-2009 08:50:01 20.8 C 10.86 g/m*3 20.8 C 0 km/h
525 25-08-2009 09:02:01 21.3 C 10.62 g/m*3 21.3 C 0 km/h
Sensor: Nr:Datum:Temp:Abs-Feuchte:Windchill:Wind:
Aussen-T/F 526 25-08-2009 09:14:01 21.5 C 10.75 g/m*3 21.5 C 0 km/h
527 25-08-2009 09:26:02 21.4 C 11.06 g/m*3 21.4 C 0 km/h
528 25-08-2009 09:38:01 22 C 11.26 g/m*3 22 C 0 km/h
529 25-08-2009 09:50:02 22.5 C 11.19 g/m*3 22.5 C 0 km/h
530 25-08-2009 10:02:01 23.2 C 10.81 g/m*3 23.2 C 0 km/h
531 25-08-2009 10:14:01 23.6 C 10.85 g/m*3 23.6 C 0 km/h
532 25-08-2009 10:26:02 23.7 C 10.48 g/m*3 23.7 C 0 km/h
533 25-08-2009 10:38:01 23.9 C 10.6 g/m*3 23.9 C 0 km/h
534 25-08-2009 10:50:02 23.8 C 10.76 g/m*3 23.8 C 0 km/h
535 25-08-2009 11:02:01 23.7 C 11.34 g/m*3 23.7 C 0 km/h
536 25-08-2009 11:14:01 23.4 C 11.14 g/m*3 23.4 C 0 km/h
537 25-08-2009 11:26:01 23.6 C 11.27 g/m*3 23.6 C 0 km/h
538 25-08-2009 11:38:01 24 C 10.88 g/m*3 24 C 0 km/h
539 25-08-2009 11:50:02 23.8 C 10.97 g/m*3 23.8 C 0 km/h
540 25-08-2009 12:02:01 24.6 C 10.8 g/m*3 24.6 C 0 km/h
541 25-08-2009 12:14:01 25.2 C 10.71 g/m*3 25.2 C 0 km/h
542 25-08-2009 12:26:01 26 C 10.96 g/m*3 26 C 0 km/h
543 25-08-2009 12:38:02 26.7 C 10.88 g/m*3 26.7 C 0 km/h
544 25-08-2009 12:50:01 27.5 C 10.32 g/m*3 27.5 C 0 km/h
545 25-08-2009 13:02:02 28.1 C 10.39 g/m*3 28.1 C 0 km/h
546 25-08-2009 13:14:02 28.1 C 10.39 g/m*3 28.1 C 0 km/h
547 25-08-2009 13:26:01 28.7 C 10.17 g/m*3 28.7 C 0 km/h
548 25-08-2009 13:38:02 28.3 C 9.12 g/m*3 28.3 C 0 km/h
549 25-08-2009 13:50:01 27.8 C 9.15 g/m*3 27.8 C 0 km/h
550 25-08-2009 14:02:02 28.7 C 9.32 g/m*3 28.7 C 0 km/h
Sensor: Nr:Datum:Temp:Abs-Feuchte:Windchill:Wind:
Aussen-T/F 551 25-08-2009 14:14:02 28.3 C 9.12 g/m*3 28.3 C 0 km/h
552 25-08-2009 14:26:01 28.7 C 9.04 g/m*3 28.7 C 0 km/h
553 25-08-2009 14:38:02 28.3 C 9.12 g/m*3 28.3 C 0 km/h
554 25-08-2009 14:50:01 28.3 C 9.12 g/m*3 28.3 C 0 km/h
555 25-08-2009 15:02:02 28.1 C 9.02 g/m*3 28.1 C 0 km/h
556 25-08-2009 15:14:02 27.5 C 9.52 g/m*3 27.5 C 0 km/h
557 25-08-2009 15:26:01 27.9 C 9.74 g/m*3 27.9 C 0 km/h
558 25-08-2009 15:38:01 29.1 C 9.24 g/m*3 29.1 C 0 km/h
559 25-08-2009 15:50:01 27.9 C 9.2 g/m*3 27.9 C 0 km/h
560 25-08-2009 16:02:01 28.1 C 9.3 g/m*3 28.1 C 0 km/h
561 25-08-2009 16:14:02 28.5 C 8.66 g/m*3 28.5 C 0 km/h
562 25-08-2009 16:26:01 28.3 C 9.12 g/m*3 28.3 C 0 km/h
563 25-08-2009 16:38:01 28 C 8.97 g/m*3 28 C 0 km/h
564 25-08-2009 16:50:01 27.6 C 8.78 g/m*3 27.6 C 0 km/h
565 25-08-2009 17:02:01 27.4 C 9.47 g/m*3 27.4 C 0 km/h
566 25-08-2009 17:14:01 26.8 C 9.16 g/m*3 26.8 C 0 km/h
567 25-08-2009 17:26:01 26.6 C 9.31 g/m*3 26.6 C 0 km/h
568 25-08-2009 17:38:01 25.7 C 9.1 g/m*3 25.7 C 0 km/h
569 25-08-2009 17:50:01 25.6 C 9.28 g/m*3 25.6 C 0 km/h
570 25-08-2009 18:02:01 25.5 C 9 g/m*3 25.5 C 0 km/h
571 25-08-2009 18:14:01 25.6 C 9.28 g/m*3 25.6 C 0 km/h
572 25-08-2009 18:26:02 25.4 C 9.65 g/m*3 25.4 C 0 km/h
573 25-08-2009 18:38:01 25 C 9.67 g/m*3 25 C 0 km/h
574 25-08-2009 18:50:02 24.8 C 10.24 g/m*3 24.8 C 0 km/h
575 25-08-2009 19:02:01 24.4 C 10.68 g/m*3 24.4 C 0 km/h
Sensor: Nr:Datum:Temp:Abs-Feuchte:Windchill:Wind:
Aussen-T/F 576 25-08-2009 19:14:01 24.3 C 10.84 g/m*3 24.3 C 0 km/h
577 25-08-2009 19:26:02 24.1 C 10.94 g/m*3 24.1 C 0 km/h
578 25-08-2009 19:38:01 23.9 C 11.47 g/m*3 23.9 C 0 km/h
579 25-08-2009 19:50:02 23.7 C 11.55 g/m*3 23.7 C 0 km/h
580 25-08-2009 20:02:01 23.5 C 11.63 g/m*3 23.5 C 0 km/h
581 25-08-2009 20:14:01 23.2 C 11.64 g/m*3 23.2 C 0 km/h
582 25-08-2009 20:26:02 23.2 C 11.85 g/m*3 23.2 C 0 km/h
583 25-08-2009 20:38:01 23.2 C 11.64 g/m*3 23.2 C 0 km/h
584 25-08-2009 20:50:02 23.1 C 11.58 g/m*3 23.1 C 0 km/h
585 25-08-2009 21:02:02 22.6 C 11.65 g/m*3 22.6 C 0 km/h
586 25-08-2009 21:14:02 22.1 C 11.71 g/m*3 22.1 C 0 km/h
587 25-08-2009 21:26:01 22 C 11.84 g/m*3 22 C 0 km/h
588 25-08-2009 21:38:02 21.9 C 11.96 g/m*3 21.9 C 0 km/h
589 25-08-2009 21:50:01 21.9 C 12.16 g/m*3 21.9 C 0 km/h
590 25-08-2009 22:03:03 21.9 C 11.96 g/m*3 21.9 C 0 km/h
591 25-08-2009 22:15:03 21.7 C 12.02 g/m*3 21.7 C 0 km/h
592 25-08-2009 22:27:03 21.5 C 12.07 g/m*3 21.5 C 0 km/h
593 25-08-2009 22:39:03 21.3 C 11.93 g/m*3 21.3 C 0 km/h
594 25-08-2009 22:51:03 21.2 C 12.05 g/m*3 21.2 C 0 km/h
595 25-08-2009 23:03:03 21.2 C 12.23 g/m*3 21.2 C 0 km/h
596 25-08-2009 23:15:03 21.2 C 12.23 g/m*3 21.2 C 0 km/h
597 25-08-2009 23:27:03 21.3 C 12.3 g/m*3 21.3 C 0 km/h
598 25-08-2009 23:39:03 20.9 C 11.29 g/m*3 20.9 C 0 km/h
599 25-08-2009 23:51:03 20.6 C 10.92 g/m*3 20.6 C 0 km/h
600 26-08-2009 00:03:03 20.8 C 10.68 g/m*3 20.8 C 0 km/h
Sensor: Nr:Datum:Temp:Abs-Feuchte:Windchill:Wind:
Aussen-T/F 601 26-08-2009 00:15:03 20.7 C 10.44 g/m*3 20.7 C 0 km/h
602 26-08-2009 00:27:03 20.4 C 10.44 g/m*3 20.4 C 0 km/h
603 26-08-2009 00:39:04 20.4 C 10.44 g/m*3 20.4 C 0 km/h
604 26-08-2009 00:51:04 20.3 C 10.38 g/m*3 20.3 C 0 km/h
605 26-08-2009 01:03:04 20.3 C 10.38 g/m*3 20.3 C 0 km/h
606 26-08-2009 01:15:04 19.9 C 10.48 g/m*3 19.9 C 0 km/h
607 26-08-2009 01:27:04 19.8 C 10.42 g/m*3 19.8 C 0 km/h
608 26-08-2009 01:39:04 19.7 C 10.36 g/m*3 19.7 C 0 km/h
609 26-08-2009 01:51:04 19.3 C 10.28 g/m*3 19.3 C 0 km/h
610 26-08-2009 02:03:04 18.8 C 10.31 g/m*3 18.8 C 0 km/h
611 26-08-2009 02:15:04 18.7 C 10.25 g/m*3 18.7 C 0 km/h
612 26-08-2009 02:27:04 18.5 C 10.28 g/m*3 18.5 C 0 km/h
613 26-08-2009 02:39:04 18.2 C 10.26 g/m*3 18.2 C 0 km/h
614 26-08-2009 02:51:04 17.8 C 10.32 g/m*3 17.8 C 0 km/h
615 26-08-2009 03:03:04 17.7 C 10.41 g/m*3 17.7 C 0 km/h
616 26-08-2009 03:15:04 17.5 C 10.44 g/m*3 17.5 C 0 km/h
617 26-08-2009 03:27:04 17.1 C 10.19 g/m*3 17.1 C 0 km/h
618 26-08-2009 03:39:04 16.9 C 10.21 g/m*3 16.9 C 0 km/h
619 26-08-2009 03:51:04 16.7 C 10.23 g/m*3 16.7 C 0 km/h
620 26-08-2009 04:03:04 16.6 C 10.31 g/m*3 16.6 C 0 km/h
621 26-08-2009 04:15:04 16.4 C 10.19 g/m*3 16.4 C 0 km/h
622 26-08-2009 04:27:05 16.3 C 10.13 g/m*3 16.3 C 0 km/h
623 26-08-2009 04:39:05 16.1 C 10.01 g/m*3 16.1 C 0 km/h
624 26-08-2009 04:51:05 15.8 C 10.1 g/m*3 15.8 C 0 km/h
625 26-08-2009 05:03:05 15.7 C 10.17 g/m*3 15.7 C 0 km/h
Sensor: Nr:Datum:Temp:Abs-Feuchte:Windchill:Wind:
Aussen-T/F 626 26-08-2009 05:15:05 15.6 C 10.11 g/m*3 15.6 C 0 km/h
627 26-08-2009 05:27:05 15.4 C 9.99 g/m*3 15.4 C 0 km/h
628 26-08-2009 05:39:05 15.3 C 10.06 g/m*3 15.3 C 0 km/h
629 26-08-2009 05:51:05 15.4 C 10.12 g/m*3 15.4 C 0 km/h
630 26-08-2009 06:03:05 15.6 C 10.24 g/m*3 15.6 C 0 km/h
631 26-08-2009 06:15:05 15.4 C 10.12 g/m*3 15.4 C 0 km/h
632 26-08-2009 06:27:05 15.2 C 9.99 g/m*3 15.2 C 0 km/h
633 26-08-2009 06:39:05 15.1 C 10.06 g/m*3 15.1 C 0 km/h
634 26-08-2009 06:51:05 14.9 C 10.07 g/m*3 14.9 C 0 km/h
635 26-08-2009 07:03:02 14.8 C 10.13 g/m*3 14.8 C 0 km/h
636 26-08-2009 07:15:02 14.7 C 10.2 g/m*3 14.7 C 0 km/h
637 26-08-2009 07:27:02 14.7 C 10.2 g/m*3 14.7 C 0 km/h
638 26-08-2009 07:39:02 14.8 C 10.26 g/m*3 14.8 C 0 km/h
639 26-08-2009 07:51:02 15 C 10.26 g/m*3 15 C 0 km/h
640 26-08-2009 08:03:02 15.1 C 10.32 g/m*3 15.1 C 0 km/h
641 26-08-2009 08:15:02 15.2 C 10.38 g/m*3 15.2 C 0 km/h
642 26-08-2009 08:27:03 15.4 C 10.51 g/m*3 15.4 C 0 km/h
643 26-08-2009 08:39:02 15.6 C 10.64 g/m*3 15.6 C 0 km/h
644 26-08-2009 08:51:02 15.9 C 10.7 g/m*3 15.9 C 0 km/h
645 26-08-2009 09:03:01 16.1 C 10.55 g/m*3 16.1 C 0 km/h
646 26-08-2009 09:15:02 16.4 C 10.75 g/m*3 16.4 C 0 km/h
647 26-08-2009 09:27:02 16.8 C 10.87 g/m*3 16.8 C 0 km/h
648 26-08-2009 09:39:02 17.4 C 10.82 g/m*3 17.4 C 0 km/h
649 26-08-2009 09:51:02 17.9 C 11.15 g/m*3 17.9 C 0 km/h
650 26-08-2009 10:03:02 18.5 C 10.76 g/m*3 18.5 C 0 km/h
Sensor: Nr:Datum:Temp:Abs-Feuchte:Windchill:Wind:
Aussen-T/F 651 26-08-2009 10:15:02 19.1 C 10.66 g/m*3 19.1 C 0 km/h
652 26-08-2009 10:27:02 19.6 C 10.47 g/m*3 19.6 C 0 km/h
653 26-08-2009 10:39:03 20.2 C 10.32 g/m*3 20.2 C 0 km/h
654 26-08-2009 10:51:02 20.9 C 8.38 g/m*3 20.9 C 0 km/h
655 26-08-2009 11:03:02 21.3 C 8.2 g/m*3 21.3 C 0 km/h
656 26-08-2009 11:15:01 21.8 C 8.06 g/m*3 21.8 C 0 km/h
657 26-08-2009 11:27:01 22.3 C 7.31 g/m*3 22.3 C 0 km/h
658 26-08-2009 11:39:02 22.5 C 7.39 g/m*3 22.5 C 0 km/h
659 26-08-2009 11:51:02 22.7 C 7.27 g/m*3 22.7 C 0 km/h
660 26-08-2009 12:03:02 23.4 C 7.36 g/m*3 23.4 C 0 km/h
661 26-08-2009 12:15:02 23.8 C 7.1 g/m*3 23.8 C 0 km/h
662 26-08-2009 12:27:02 24.1 C 6.78 g/m*3 24.1 C 0 km/h
663 26-08-2009 12:39:02 24.5 C 6.71 g/m*3 24.5 C 0 km/h
664 26-08-2009 12:51:02 24 C 6.74 g/m*3 24 C 0 km/h
665 26-08-2009 13:03:02 24.9 C 7.1 g/m*3 24.9 C 0 km/h
666 26-08-2009 13:15:02 25.5 C 6.87 g/m*3 25.5 C 0 km/h
667 26-08-2009 13:27:02 25.9 C 7.02 g/m*3 25.9 C 0 km/h
668 26-08-2009 13:39:02 26.6 C 7.05 g/m*3 26.6 C 0 km/h
669 26-08-2009 13:51:02 26.9 C 6.91 g/m*3 26.9 C 0 km/h
670 26-08-2009 14:03:02 27.2 C 7.29 g/m*3 27.2 C 0 km/h
671 26-08-2009 14:15:02 27.8 C 7.26 g/m*3 27.8 C 0 km/h
672 26-08-2009 14:27:02 27.8 C 7.26 g/m*3 27.8 C 0 km/h
673 26-08-2009 14:39:02 27.8 C 7.26 g/m*3 27.8 C 0 km/h
674 26-08-2009 14:51:02 28.6 C 7.59 g/m*3 28.6 C 0 km/h
675 26-08-2009 15:03:02 28 C 8.16 g/m*3 28 C 0 km/h
Sensor: Nr:Datum:Temp:Abs-Feuchte:Windchill:Wind:
Aussen-T/F 676 26-08-2009 15:15:02 27.8 C 8.34 g/m*3 27.8 C 0 km/h
677 26-08-2009 15:27:02 27.9 C 7.84 g/m*3 27.9 C 0 km/h
678 26-08-2009 15:39:02 27.8 C 8.61 g/m*3 27.8 C 0 km/h
679 26-08-2009 15:51:02 27.1 C 7.76 g/m*3 27.1 C 0 km/h
680 26-08-2009 16:03:02 27.7 C 8.02 g/m*3 27.7 C 0 km/h
681 26-08-2009 16:15:02 28.7 C 7.63 g/m*3 28.7 C 0 km/h
682 26-08-2009 16:27:02 28.9 C 7.43 g/m*3 28.9 C 0 km/h
683 26-08-2009 16:39:02 28.6 C 7.59 g/m*3 28.6 C 0 km/h
684 26-08-2009 16:51:02 29.6 C 7.72 g/m*3 29.6 C 0 km/h
685 26-08-2009 17:03:02 29.8 C 7.5 g/m*3 29.8 C 0 km/h
686 26-08-2009 17:15:02 29.5 C 7.38 g/m*3 29.5 C 0 km/h
687 26-08-2009 17:27:02 28.1 C 7.11 g/m*3 28.1 C 0 km/h
688 26-08-2009 17:39:02 28.4 C 7.23 g/m*3 28.4 C 0 km/h
689 26-08-2009 17:51:02 28.7 C 7.35 g/m*3 28.7 C 0 km/h
690 26-08-2009 18:03:02 29 C 6.89 g/m*3 29 C 0 km/h
691 26-08-2009 18:15:02 28.1 C 6.56 g/m*3 28.1 C 0 km/h
692 26-08-2009 18:27:03 27.8 C 6.99 g/m*3 27.8 C 0 km/h
693 26-08-2009 18:39:01 27.7 C 6.95 g/m*3 27.7 C 0 km/h
694 26-08-2009 18:51:02 28 C 7.07 g/m*3 28 C 0 km/h
695 26-08-2009 19:03:01 28.6 C 7.03 g/m*3 28.6 C 0 km/h
696 26-08-2009 19:15:01 28.5 C 6.99 g/m*3 28.5 C 0 km/h
697 26-08-2009 19:27:01 27.6 C 7.45 g/m*3 27.6 C 0 km/h
698 26-08-2009 19:39:02 27.4 C 7.37 g/m*3 27.4 C 0 km/h
699 26-08-2009 19:51:02 26.4 C 7.72 g/m*3 26.4 C 0 km/h
700 26-08-2009 20:03:02 25.3 C 7.96 g/m*3 25.3 C 0 km/h
Sensor: Nr:Datum:Temp:Abs-Feuchte:Windchill:Wind:
Aussen-T/F 701 26-08-2009 20:15:02 24.3 C 7.97 g/m*3 24.3 C 0 km/h
702 26-08-2009 20:27:02 23.5 C 8.25 g/m*3 23.5 C 0 km/h
703 26-08-2009 20:39:02 23 C 8.22 g/m*3 23 C 0 km/h
704 26-08-2009 20:51:02 22.8 C 8.53 g/m*3 22.8 C 0 km/h
705 26-08-2009 21:03:01 22.8 C 8.74 g/m*3 22.8 C 0 km/h
706 26-08-2009 21:15:02 22.7 C 8.89 g/m*3 22.7 C 0 km/h
707 26-08-2009 21:27:02 22.6 C 8.84 g/m*3 22.6 C 0 km/h
708 26-08-2009 21:39:01 22.7 C 9.09 g/m*3 22.7 C 0 km/h
709 26-08-2009 21:51:02 22.5 C 9.19 g/m*3 22.5 C 0 km/h
710 26-08-2009 22:04:03 22.4 C 9.33 g/m*3 22.4 C 0 km/h
711 26-08-2009 22:16:04 22.1 C 9.56 g/m*3 22.1 C 0 km/h
712 26-08-2009 22:28:04 22 C 9.7 g/m*3 22 C 0 km/h
713 26-08-2009 22:40:04 21.8 C 10.17 g/m*3 21.8 C 0 km/h
714 26-08-2009 22:52:04 21.9 C 10.23 g/m*3 21.9 C 0 km/h
715 26-08-2009 23:04:04 21.6 C 10.24 g/m*3 21.6 C 0 km/h
716 26-08-2009 23:16:04 21.4 C 10.31 g/m*3 21.4 C 0 km/h
717 26-08-2009 23:28:04 21.3 C 10.44 g/m*3 21.3 C 0 km/h
718 26-08-2009 23:40:04 21.1 C 10.5 g/m*3 21.1 C 0 km/h
719 26-08-2009 23:52:04 20.8 C 10.68 g/m*3 20.8 C 0 km/h
720 27-08-2009 00:04:04 20.7 C 10.62 g/m*3 20.7 C 0 km/h
721 27-08-2009 00:16:04 20.4 C 10.61 g/m*3 20.4 C 0 km/h
722 27-08-2009 00:28:04 20.3 C 10.73 g/m*3 20.3 C 0 km/h
723 27-08-2009 00:40:04 20 C 10.54 g/m*3 20 C 0 km/h
724 27-08-2009 00:52:04 19.9 C 10.82 g/m*3 19.9 C 0 km/h
725 27-08-2009 01:04:04 19.9 C 10.82 g/m*3 19.9 C 0 km/h
Sensor: Nr:Datum:Temp:Abs-Feuchte:Windchill:Wind:
Aussen-T/F 726 27-08-2009 01:16:04 19.8 C 10.93 g/m*3 19.8 C 0 km/h
727 27-08-2009 01:28:04 19.6 C 10.97 g/m*3 19.6 C 0 km/h
728 27-08-2009 01:40:04 19.3 C 10.95 g/m*3 19.3 C 0 km/h
729 27-08-2009 01:52:04 19.2 C 11.05 g/m*3 19.2 C 0 km/h
730 27-08-2009 02:04:05 19 C 10.92 g/m*3 19 C 0 km/h
731 27-08-2009 02:16:05 18.8 C 11.11 g/m*3 18.8 C 0 km/h
732 27-08-2009 02:28:05 18.7 C 11.05 g/m*3 18.7 C 0 km/h
733 27-08-2009 02:40:05 18.5 C 11.08 g/m*3 18.5 C 0 km/h
734 27-08-2009 02:52:05 18.4 C 11.17 g/m*3 18.4 C 0 km/h
735 27-08-2009 03:04:05 18.3 C 11.1 g/m*3 18.3 C 0 km/h
736 27-08-2009 03:16:05 18 C 11.06 g/m*3 18 C 0 km/h
737 27-08-2009 03:28:05 17.9 C 11.15 g/m*3 17.9 C 0 km/h
738 27-08-2009 03:40:05 17.8 C 11.08 g/m*3 17.8 C 0 km/h
739 27-08-2009 03:52:05 17.6 C 11.1 g/m*3 17.6 C 0 km/h
740 27-08-2009 04:04:05 17.5 C 11.18 g/m*3 17.5 C 0 km/h
741 27-08-2009 04:16:05 17.4 C 11.12 g/m*3 17.4 C 0 km/h
742 27-08-2009 04:28:05 17.3 C 11.05 g/m*3 17.3 C 0 km/h
743 27-08-2009 04:40:05 17.2 C 11.13 g/m*3 17.2 C 0 km/h
744 27-08-2009 04:52:05 17 C 11.14 g/m*3 17 C 0 km/h
745 27-08-2009 05:04:05 17 C 11.29 g/m*3 17 C 0 km/h
746 27-08-2009 05:16:05 16.8 C 11.44 g/m*3 16.8 C 0 km/h
747 27-08-2009 05:28:05 16.6 C 11.3 g/m*3 16.6 C 0 km/h
748 27-08-2009 05:40:05 16.5 C 11.37 g/m*3 16.5 C 0 km/h
749 27-08-2009 05:52:06 16.4 C 11.31 g/m*3 16.4 C 0 km/h
750 27-08-2009 06:04:06 16.3 C 11.24 g/m*3 16.3 C 0 km/h
Sensor: Nr:Datum:Temp:Abs-Feuchte:Windchill:Wind:
Aussen-T/F 751 27-08-2009 06:16:06 16.2 C 11.17 g/m*3 16.2 C 0 km/h
752 27-08-2009 06:28:06 16.1 C 11.1 g/m*3 16.1 C 0 km/h
753 27-08-2009 06:40:06 16.1 C 11.1 g/m*3 16.1 C 0 km/h
754 27-08-2009 06:52:02 16 C 11.04 g/m*3 16 C 0 km/h
755 27-08-2009 07:04:02 16 C 11.17 g/m*3 16 C 0 km/h
756 27-08-2009 07:16:02 16 C 11.17 g/m*3 16 C 0 km/h
757 27-08-2009 07:28:02 16 C 11.17 g/m*3 16 C 0 km/h
758 27-08-2009 07:40:01 16.2 C 11.31 g/m*3 16.2 C 0 km/h
759 27-08-2009 07:52:02 16.3 C 11.38 g/m*3 16.3 C 0 km/h
760 27-08-2009 08:04:01 16.4 C 11.58 g/m*3 16.4 C 0 km/h
761 27-08-2009 08:16:02 16.5 C 11.65 g/m*3 16.5 C 0 km/h
762 27-08-2009 08:28:02 16.6 C 11.72 g/m*3 16.6 C 0 km/h
763 27-08-2009 08:40:01 16.8 C 11.87 g/m*3 16.8 C 0 km/h
764 27-08-2009 08:52:02 17.1 C 11.94 g/m*3 17.1 C 0 km/h
765 27-08-2009 09:04:02 17.4 C 12 g/m*3 17.4 C 0 km/h
766 27-08-2009 09:16:02 17.7 C 12.07 g/m*3 17.7 C 0 km/h
767 27-08-2009 09:28:03 18.1 C 12.05 g/m*3 18.1 C 0 km/h
768 27-08-2009 09:40:01 18.8 C 12.4 g/m*3 18.8 C 0 km/h
769 27-08-2009 09:52:02 19.4 C 12.18 g/m*3 19.4 C 0 km/h
770 27-08-2009 10:04:01 20 C 11.92 g/m*3 20 C 0 km/h
771 27-08-2009 10:16:01 20.5 C 12.1 g/m*3 20.5 C 0 km/h
772 27-08-2009 10:28:01 21 C 11.91 g/m*3 21 C 0 km/h
773 27-08-2009 10:40:02 22 C 10.87 g/m*3 22 C 0 km/h
774 27-08-2009 10:52:02 23 C 10.28 g/m*3 23 C 0 km/h
775 27-08-2009 11:04:01 23.7 C 9.63 g/m*3 23.7 C 0 km/h
Sensor: Nr:Datum:Temp:Abs-Feuchte:Windchill:Wind:
Aussen-T/F 776 27-08-2009 11:16:02 24.3 C 9.29 g/m*3 24.3 C 0 km/h
777 27-08-2009 11:28:02 24.8 C 9.1 g/m*3 24.8 C 0 km/h
778 27-08-2009 11:40:02 25.2 C 8.85 g/m*3 25.2 C 0 km/h
779 27-08-2009 11:52:02 25.5 C 8.52 g/m*3 25.5 C 0 km/h
780 27-08-2009 12:04:03 25.8 C 8.43 g/m*3 25.8 C 0 km/h
781 27-08-2009 12:16:02 25.7 C 8.38 g/m*3 25.7 C 0 km/h
782 27-08-2009 12:28:02 26.4 C 8.21 g/m*3 26.4 C 0 km/h
783 27-08-2009 12:40:02 26.5 C 7.76 g/m*3 26.5 C 0 km/h
784 27-08-2009 12:52:01 26.9 C 7.68 g/m*3 26.9 C 0 km/h
785 27-08-2009 13:04:02 27.1 C 7.76 g/m*3 27.1 C 0 km/h
786 27-08-2009 13:16:01 27.7 C 7.49 g/m*3 27.7 C 0 km/h
787 27-08-2009 13:28:01 28.1 C 7.38 g/m*3 28.1 C 0 km/h
788 27-08-2009 13:40:02 28.2 C 7.15 g/m*3 28.2 C 0 km/h
789 27-08-2009 13:52:02 28.6 C 7.31 g/m*3 28.6 C 0 km/h
790 27-08-2009 14:04:02 29 C 7.47 g/m*3 29 C 0 km/h
791 27-08-2009 14:16:01 29.5 C 7.38 g/m*3 29.5 C 0 km/h
792 27-08-2009 14:28:01 30 C 7.28 g/m*3 30 C 0 km/h
793 27-08-2009 14:40:02 30.1 C 7.01 g/m*3 30.1 C 0 km/h
794 27-08-2009 14:52:01 30.3 C 6.78 g/m*3 30.3 C 0 km/h
795 27-08-2009 15:04:02 30.4 C 6.51 g/m*3 30.4 C 0 km/h
796 27-08-2009 15:16:01 30.3 C 6.16 g/m*3 30.3 C 0 km/h
797 27-08-2009 15:28:01 30.5 C 6.54 g/m*3 30.5 C 0 km/h
798 27-08-2009 15:40:02 30.3 C 6.47 g/m*3 30.3 C 0 km/h
799 27-08-2009 15:52:01 30.6 C 6.58 g/m*3 30.6 C 0 km/h
800 27-08-2009 16:04:02 30.5 C 6.85 g/m*3 30.5 C 0 km/h
Sensor: Nr:Datum:Temp:Abs-Feuchte:Windchill:Wind:
Aussen-T/F 801 27-08-2009 16:16:01 30 C 6.67 g/m*3 30 C 0 km/h
802 27-08-2009 16:28:01 30.3 C 7.09 g/m*3 30.3 C 0 km/h
803 27-08-2009 16:40:01 30.6 C 6.58 g/m*3 30.6 C 0 km/h
804 27-08-2009 16:52:01 30.5 C 7.17 g/m*3 30.5 C 0 km/h
805 27-08-2009 17:04:02 30.1 C 7.32 g/m*3 30.1 C 0 km/h
806 27-08-2009 17:16:02 30 C 7.58 g/m*3 30 C 0 km/h
807 27-08-2009 17:28:02 29.7 C 7.46 g/m*3 29.7 C 0 km/h
808 27-08-2009 17:40:01 29.5 C 7.67 g/m*3 29.5 C 0 km/h
809 27-08-2009 17:52:01 29.2 C 7.26 g/m*3 29.2 C 0 km/h
810 27-08-2009 18:04:01 29.2 C 7.26 g/m*3 29.2 C 0 km/h
811 27-08-2009 18:16:02 30.6 C 6.89 g/m*3 30.6 C 0 km/h
812 27-08-2009 18:28:02 31 C 6.72 g/m*3 31 C 0 km/h
813 27-08-2009 18:40:01 30.7 C 6.93 g/m*3 30.7 C 0 km/h
814 27-08-2009 18:52:03 29.8 C 7.2 g/m*3 29.8 C 0 km/h
815 27-08-2009 19:04:02 29.4 C 7.34 g/m*3 29.4 C 0 km/h
816 27-08-2009 19:16:02 30.5 C 7.79 g/m*3 30.5 C 0 km/h
817 27-08-2009 19:28:02 30.7 C 7.24 g/m*3 30.7 C 0 km/h
818 27-08-2009 19:40:02 30.3 C 7.7 g/m*3 30.3 C 0 km/h
819 27-08-2009 19:52:03 29.2 C 7.55 g/m*3 29.2 C 0 km/h
820 27-08-2009 20:04:02 28.4 C 7.78 g/m*3 28.4 C 0 km/h
821 27-08-2009 20:16:02 27.2 C 7.81 g/m*3 27.2 C 0 km/h
822 27-08-2009 20:28:02 26.5 C 8.01 g/m*3 26.5 C 0 km/h
823 27-08-2009 20:40:02 25.9 C 8.23 g/m*3 25.9 C 0 km/h
824 27-08-2009 20:52:02 25.3 C 8.19 g/m*3 25.3 C 0 km/h
825 27-08-2009 21:04:02 24.7 C 8.37 g/m*3 24.7 C 0 km/h
Sensor: Nr:Datum:Temp:Abs-Feuchte:Windchill:Wind:
Aussen-T/F 826 27-08-2009 21:16:01 24.7 C 8.6 g/m*3 24.7 C 0 km/h
827 27-08-2009 21:28:01 24.2 C 8.8 g/m*3 24.2 C 0 km/h
828 27-08-2009 21:40:02 24 C 9.14 g/m*3 24 C 0 km/h
829 27-08-2009 21:52:02 23.7 C 8.98 g/m*3 23.7 C 0 km/h
830 27-08-2009 22:04:02 23.6 C 9.15 g/m*3 23.6 C 0 km/h
831 27-08-2009 22:16:02 23.4 C 9.25 g/m*3 23.4 C 0 km/h
832 27-08-2009 22:28:02 22.9 C 9.61 g/m*3 22.9 C 0 km/h
833 27-08-2009 22:41:03 22.6 C 9.64 g/m*3 22.6 C 0 km/h
834 27-08-2009 22:53:03 22.5 C 9.79 g/m*3 22.5 C 0 km/h
835 27-08-2009 23:05:03 22.3 C 9.87 g/m*3 22.3 C 0 km/h
836 27-08-2009 23:17:03 22.3 C 9.87 g/m*3 22.3 C 0 km/h
837 27-08-2009 23:29:03 22.1 C 9.76 g/m*3 22.1 C 0 km/h
838 27-08-2009 23:41:03 22.1 C 9.96 g/m*3 22.1 C 0 km/h
839 27-08-2009 23:53:03 22.2 C 9.82 g/m*3 22.2 C 0 km/h
840 28-08-2009 00:05:03 22.1 C 9.96 g/m*3 22.1 C 0 km/h
841 28-08-2009 00:17:03 22 C 9.9 g/m*3 22 C 0 km/h
842 28-08-2009 00:29:03 22 C 10.09 g/m*3 22 C 0 km/h
843 28-08-2009 00:41:03 22 C 10.09 g/m*3 22 C 0 km/h
844 28-08-2009 00:53:04 21.9 C 10.23 g/m*3 21.9 C 0 km/h
845 28-08-2009 01:05:04 21.8 C 10.36 g/m*3 21.8 C 0 km/h
846 28-08-2009 01:17:04 21.6 C 10.24 g/m*3 21.6 C 0 km/h
847 28-08-2009 01:29:04 21.3 C 10.25 g/m*3 21.3 C 0 km/h
848 28-08-2009 01:41:04 21.3 C 10.44 g/m*3 21.3 C 0 km/h
849 28-08-2009 01:53:04 21.2 C 10.38 g/m*3 21.2 C 0 km/h
850 28-08-2009 02:05:04 21 C 10.26 g/m*3 21 C 0 km/h
Sensor: Nr:Datum:Temp:Abs-Feuchte:Windchill:Wind:
Aussen-T/F 851 28-08-2009 02:17:04 21 C 10.44 g/m*3 21 C 0 km/h
852 28-08-2009 02:29:04 20.9 C 10.56 g/m*3 20.9 C 0 km/h
853 28-08-2009 02:41:04 20.9 C 10.56 g/m*3 20.9 C 0 km/h
854 28-08-2009 02:53:04 20.8 C 10.5 g/m*3 20.8 C 0 km/h
855 28-08-2009 03:05:04 20.8 C 10.5 g/m*3 20.8 C 0 km/h
856 28-08-2009 03:17:04 20.8 C 10.68 g/m*3 20.8 C 0 km/h
857 28-08-2009 03:29:04 20.6 C 10.56 g/m*3 20.6 C 0 km/h
858 28-08-2009 03:41:04 20.4 C 10.61 g/m*3 20.4 C 0 km/h
859 28-08-2009 03:53:04 20.4 C 10.61 g/m*3 20.4 C 0 km/h
860 28-08-2009 04:05:04 20.4 C 10.61 g/m*3 20.4 C 0 km/h
861 28-08-2009 04:17:04 20.3 C 10.55 g/m*3 20.3 C 0 km/h
862 28-08-2009 04:29:04 20.1 C 10.43 g/m*3 20.1 C 0 km/h
863 28-08-2009 04:41:04 20 C 10.54 g/m*3 20 C 0 km/h
864 28-08-2009 04:53:05 20 C 10.54 g/m*3 20 C 0 km/h
865 28-08-2009 05:05:05 19.8 C 10.59 g/m*3 19.8 C 0 km/h
866 28-08-2009 05:17:05 19.7 C 10.7 g/m*3 19.7 C 0 km/h
867 28-08-2009 05:29:05 19.7 C 10.7 g/m*3 19.7 C 0 km/h
868 28-08-2009 05:41:05 19.6 C 10.8 g/m*3 19.6 C 0 km/h
869 28-08-2009 05:53:05 19.5 C 10.74 g/m*3 19.5 C 0 km/h
870 28-08-2009 06:05:05 19.6 C 10.64 g/m*3 19.6 C 0 km/h
871 28-08-2009 06:17:05 19.7 C 10.53 g/m*3 19.7 C 0 km/h
872 28-08-2009 06:29:05 19.6 C 10.47 g/m*3 19.6 C 0 km/h
873 28-08-2009 06:41:05 19.5 C 10.57 g/m*3 19.5 C 0 km/h
874 28-08-2009 06:53:05 19.3 C 10.62 g/m*3 19.3 C 0 km/h
875 28-08-2009 07:05:03 19.2 C 10.72 g/m*3 19.2 C 0 km/h
Sensor: Nr:Datum:Temp:Abs-Feuchte:Windchill:Wind:
Aussen-T/F 876 28-08-2009 07:17:03 19.2 C 10.88 g/m*3 19.2 C 0 km/h
877 28-08-2009 07:29:03 19.4 C 10.84 g/m*3 19.4 C 0 km/h
878 28-08-2009 07:41:03 19.5 C 10.91 g/m*3 19.5 C 0 km/h
879 28-08-2009 07:53:02 19.5 C 10.91 g/m*3 19.5 C 0 km/h
880 28-08-2009 08:05:02 19.7 C 11.04 g/m*3 19.7 C 0 km/h
881 28-08-2009 08:17:02 20.2 C 11.02 g/m*3 20.2 C 0 km/h
882 28-08-2009 08:29:02 20.1 C 10.95 g/m*3 20.1 C 0 km/h
883 28-08-2009 08:41:02 20.3 C 10.9 g/m*3 20.3 C 0 km/h
884 28-08-2009 08:53:01 20.6 C 10.92 g/m*3 20.6 C 0 km/h
885 28-08-2009 09:05:02 21 C 10.81 g/m*3 21 C 0 km/h
886 28-08-2009 09:17:01 21.3 C 10.25 g/m*3 21.3 C 0 km/h
887 28-08-2009 09:29:01 21.7 C 10.11 g/m*3 21.7 C 0 km/h
888 28-08-2009 09:41:01 21.8 C 10.17 g/m*3 21.8 C 0 km/h
889 28-08-2009 09:53:01 22.1 C 9.96 g/m*3 22.1 C 0 km/h
890 28-08-2009 10:05:02 22.3 C 9.87 g/m*3 22.3 C 0 km/h
891 28-08-2009 10:17:01 22 C 9.9 g/m*3 22 C 0 km/h
892 28-08-2009 10:29:01 21.8 C 10.17 g/m*3 21.8 C 0 km/h
893 28-08-2009 10:41:02 21.9 C 9.84 g/m*3 21.9 C 0 km/h
894 28-08-2009 10:53:01 22.1 C 9.56 g/m*3 22.1 C 0 km/h
895 28-08-2009 11:05:02 22.1 C 9.56 g/m*3 22.1 C 0 km/h
896 28-08-2009 11:17:02 22.7 C 9.5 g/m*3 22.7 C 0 km/h
897 28-08-2009 11:29:02 22.4 C 9.53 g/m*3 22.4 C 0 km/h
898 28-08-2009 11:41:02 22.4 C 8.94 g/m*3 22.4 C 0 km/h
899 28-08-2009 11:53:01 23.1 C 8.27 g/m*3 23.1 C 0 km/h
900 28-08-2009 12:05:02 23.2 C 8.11 g/m*3 23.2 C 0 km/h
Sensor: Nr:Datum:Temp:Abs-Feuchte:Windchill:Wind:
Aussen-T/F 901 28-08-2009 12:17:02 23.3 C 7.74 g/m*3 23.3 C 0 km/h
902 28-08-2009 12:29:02 23.9 C 7.79 g/m*3 23.9 C 0 km/h
903 28-08-2009 12:41:02 23.8 C 7.53 g/m*3 23.8 C 0 km/h
904 28-08-2009 12:53:01 23.4 C 7.57 g/m*3 23.4 C 0 km/h
905 28-08-2009 13:05:02 22.9 C 7.56 g/m*3 22.9 C 0 km/h
906 28-08-2009 13:17:02 22.3 C 7.9 g/m*3 22.3 C 0 km/h
907 28-08-2009 13:29:02 21.8 C 8.06 g/m*3 21.8 C 0 km/h
908 28-08-2009 13:41:01 22 C 7.96 g/m*3 22 C 0 km/h
909 28-08-2009 13:53:02 22.8 C 8.33 g/m*3 22.8 C 0 km/h
910 28-08-2009 14:05:01 24 C 8.05 g/m*3 24 C 0 km/h
911 28-08-2009 14:17:02 24.2 C 8.14 g/m*3 24.2 C 0 km/h
912 28-08-2009 14:29:02 24.2 C 7.7 g/m*3 24.2 C 0 km/h
913 28-08-2009 14:41:01 24.5 C 7.83 g/m*3 24.5 C 0 km/h
914 28-08-2009 14:53:02 24.6 C 7.88 g/m*3 24.6 C 0 km/h
915 28-08-2009 15:05:01 24.3 C 7.75 g/m*3 24.3 C 0 km/h
916 28-08-2009 15:17:01 24.9 C 7.32 g/m*3 24.9 C 0 km/h
917 28-08-2009 15:29:01 25.3 C 7.02 g/m*3 25.3 C 0 km/h
918 28-08-2009 15:41:01 25.5 C 6.63 g/m*3 25.5 C 0 km/h
919 28-08-2009 15:53:02 25.7 C 6.46 g/m*3 25.7 C 0 km/h
920 28-08-2009 16:05:02 25.3 C 6.55 g/m*3 25.3 C 0 km/h
921 28-08-2009 16:17:02 25.4 C 6.12 g/m*3 25.4 C 0 km/h
922 28-08-2009 16:29:02 25.7 C 5.99 g/m*3 25.7 C 0 km/h
923 28-08-2009 16:41:02 25.7 C 5.99 g/m*3 25.7 C 0 km/h
924 28-08-2009 16:53:02 24.7 C 6.11 g/m*3 24.7 C 0 km/h
925 28-08-2009 17:05:02 24.9 C 5.95 g/m*3 24.9 C 0 km/h
Sensor: Nr:Datum:Temp:Abs-Feuchte:Windchill:Wind:
Aussen-T/F 926 28-08-2009 17:17:01 24.8 C 5.69 g/m*3 24.8 C 0 km/h
927 28-08-2009 17:29:01 24.7 C 5.66 g/m*3 24.7 C 0 km/h
928 28-08-2009 17:41:02 24.8 C 5.24 g/m*3 24.8 C 0 km/h
929 28-08-2009 17:53:02 23.7 C 5.35 g/m*3 23.7 C 0 km/h
930 28-08-2009 18:05:02 25.1 C 5.09 g/m*3 25.1 C 0 km/h
931 28-08-2009 18:17:02 24.8 C 4.55 g/m*3 24.8 C 0 km/h
932 28-08-2009 18:29:02 25.1 C 4.63 g/m*3 25.1 C 0 km/h
933 28-08-2009 18:41:02 24.5 C 4.48 g/m*3 24.5 C 0 km/h
934 28-08-2009 18:53:01 24 C 4.35 g/m*3 24 C 0 km/h
935 28-08-2009 19:05:02 23.7 C 4.92 g/m*3 23.7 C 0 km/h
936 28-08-2009 19:17:01 23.4 C 5.05 g/m*3 23.4 C 0 km/h
937 28-08-2009 19:29:01 22.9 C 5.11 g/m*3 22.9 C 0 km/h
938 28-08-2009 19:41:01 22.5 C 4.99 g/m*3 22.5 C 0 km/h
939 28-08-2009 19:53:01 22.4 C 5.16 g/m*3 22.4 C 0 km/h
940 28-08-2009 20:05:02 21.4 C 4.87 g/m*3 21.4 C 0 km/h
941 28-08-2009 20:17:01 20.8 C 5.25 g/m*3 20.8 C 0 km/h
942 28-08-2009 20:29:01 20.5 C 5.34 g/m*3 20.5 C 0 km/h
943 28-08-2009 20:41:02 20.2 C 5.42 g/m*3 20.2 C 0 km/h
944 28-08-2009 20:53:01 19.9 C 5.5 g/m*3 19.9 C 0 km/h
945 28-08-2009 21:05:02 19.7 C 5.43 g/m*3 19.7 C 0 km/h
946 28-08-2009 21:17:01 19.5 C 5.54 g/m*3 19.5 C 0 km/h
947 28-08-2009 21:29:01 19.4 C 5.34 g/m*3 19.4 C 0 km/h
948 28-08-2009 21:41:02 19.1 C 5.57 g/m*3 19.1 C 0 km/h
949 28-08-2009 21:53:01 18.9 C 5.67 g/m*3 18.9 C 0 km/h
950 28-08-2009 22:06:02 18.6 C 5.73 g/m*3 18.6 C 0 km/h
Sensor: Nr:Datum:Temp:Abs-Feuchte:Windchill:Wind:
Aussen-T/F 951 28-08-2009 22:18:02 18.4 C 5.98 g/m*3 18.4 C 0 km/h
952 28-08-2009 22:30:03 18.1 C 5.87 g/m*3 18.1 C 0 km/h
953 28-08-2009 22:42:03 17.9 C 6.11 g/m*3 17.9 C 0 km/h
954 28-08-2009 22:54:03 17.7 C 6.04 g/m*3 17.7 C 0 km/h
955 28-08-2009 23:06:03 17.8 C 6.07 g/m*3 17.8 C 0 km/h
956 28-08-2009 23:18:03 17.7 C 5.88 g/m*3 17.7 C 0 km/h
957 28-08-2009 23:30:03 17.6 C 5.85 g/m*3 17.6 C 0 km/h
958 28-08-2009 23:42:03 17.4 C 5.93 g/m*3 17.4 C 0 km/h
959 28-08-2009 23:54:03 17.4 C 5.93 g/m*3 17.4 C 0 km/h
960 29-08-2009 00:06:03 17.3 C 5.89 g/m*3 17.3 C 0 km/h
961 29-08-2009 00:18:03 16.9 C 6.04 g/m*3 16.9 C 0 km/h
962 29-08-2009 00:30:03 16.6 C 5.93 g/m*3 16.6 C 0 km/h
963 29-08-2009 00:42:03 16.5 C 6.04 g/m*3 16.5 C 0 km/h
964 29-08-2009 00:54:03 16.7 C 5.83 g/m*3 16.7 C 0 km/h
965 29-08-2009 01:06:03 16.9 C 5.9 g/m*3 16.9 C 0 km/h
966 29-08-2009 01:18:03 16.6 C 5.79 g/m*3 16.6 C 0 km/h
967 29-08-2009 01:30:03 16.2 C 5.79 g/m*3 16.2 C 0 km/h
968 29-08-2009 01:42:03 16 C 5.72 g/m*3 16 C 0 km/h
969 29-08-2009 01:54:03 15.9 C 5.82 g/m*3 15.9 C 0 km/h
970 29-08-2009 02:06:03 15.9 C 5.82 g/m*3 15.9 C 0 km/h
971 29-08-2009 02:18:03 15.7 C 5.75 g/m*3 15.7 C 0 km/h
972 29-08-2009 02:30:04 15.5 C 5.95 g/m*3 15.5 C 0 km/h
973 29-08-2009 02:42:04 15.1 C 5.93 g/m*3 15.1 C 0 km/h
974 29-08-2009 02:54:04 15 C 5.9 g/m*3 15 C 0 km/h
975 29-08-2009 03:06:04 15 C 5.9 g/m*3 15 C 0 km/h
Sensor: Nr:Datum:Temp:Abs-Feuchte:Windchill:Wind:
Aussen-T/F 976 29-08-2009 03:18:04 14.8 C 5.95 g/m*3 14.8 C 0 km/h
977 29-08-2009 03:30:04 14.7 C 5.92 g/m*3 14.7 C 0 km/h
978 29-08-2009 03:42:04 14.8 C 5.95 g/m*3 14.8 C 0 km/h
979 29-08-2009 03:54:04 14.7 C 6.04 g/m*3 14.7 C 0 km/h
980 29-08-2009 04:06:04 14.5 C 6.09 g/m*3 14.5 C 0 km/h
981 29-08-2009 04:18:04 14.4 C 6.18 g/m*3 14.4 C 0 km/h
982 29-08-2009 04:30:04 14.2 C 6.23 g/m*3 14.2 C 0 km/h
983 29-08-2009 04:42:04 14 C 6.39 g/m*3 14 C 0 km/h
984 29-08-2009 04:54:04 13.8 C 6.55 g/m*3 13.8 C 0 km/h
985 29-08-2009 05:06:04 13.8 C 6.67 g/m*3 13.8 C 0 km/h
986 29-08-2009 05:18:04 13.6 C 6.71 g/m*3 13.6 C 0 km/h
987 29-08-2009 05:30:04 13.6 C 6.71 g/m*3 13.6 C 0 km/h
988 29-08-2009 05:42:04 13.5 C 6.78 g/m*3 13.5 C 0 km/h
989 29-08-2009 05:54:04 13.5 C 6.78 g/m*3 13.5 C 0 km/h
990 29-08-2009 06:06:04 13.3 C 6.82 g/m*3 13.3 C 0 km/h
991 29-08-2009 06:18:04 13.2 C 6.89 g/m*3 13.2 C 0 km/h
992 29-08-2009 06:30:05 13 C 6.92 g/m*3 13 C 0 km/h
993 29-08-2009 06:42:05 12.8 C 7.06 g/m*3 12.8 C 0 km/h
994 29-08-2009 06:54:05 12.6 C 7.19 g/m*3 12.6 C 0 km/h
995 29-08-2009 07:06:05 12.7 C 7.24 g/m*3 12.7 C 0 km/h
996 29-08-2009 07:18:02 12.7 C 7.24 g/m*3 12.7 C 0 km/h
997 29-08-2009 07:30:02 12.7 C 7.35 g/m*3 12.7 C 0 km/h
998 29-08-2009 07:42:02 12.7 C 7.35 g/m*3 12.7 C 0 km/h
999 29-08-2009 07:54:01 12.8 C 7.39 g/m*3 12.8 C 0 km/h
1000 29-08-2009 08:06:02 12.9 C 7.44 g/m*3 12.9 C 0 km/h
Sensor: Nr:Datum:Temp:Abs-Feuchte:Windchill:Wind:
Aussen-T/F 1001 29-08-2009 08:18:01 13.1 C 7.42 g/m*3 13.1 C 0 km/h
1002 29-08-2009 08:30:01 13.3 C 7.51 g/m*3 13.3 C 0 km/h
1003 29-08-2009 08:42:01 13.7 C 7.58 g/m*3 13.7 C 0 km/h
1004 29-08-2009 08:54:02 14 C 7.48 g/m*3 14 C 0 km/h
1005 29-08-2009 09:06:02 14.5 C 7.46 g/m*3 14.5 C 0 km/h
1006 29-08-2009 09:18:01 14.8 C 7.22 g/m*3 14.8 C 0 km/h
1007 29-08-2009 09:30:01 15 C 7.05 g/m*3 15 C 0 km/h
1008 29-08-2009 09:42:02 15 C 7.18 g/m*3 15 C 0 km/h
1009 29-08-2009 09:54:02 15.6 C 7.05 g/m*3 15.6 C 0 km/h
1010 29-08-2009 10:06:02 16.1 C 6.85 g/m*3 16.1 C 0 km/h
1011 29-08-2009 10:18:01 16.6 C 6.78 g/m*3 16.6 C 0 km/h
1012 29-08-2009 10:30:01 16.8 C 6.72 g/m*3 16.8 C 0 km/h
1013 29-08-2009 10:42:02 17 C 6.8 g/m*3 17 C 0 km/h
1014 29-08-2009 10:54:01 17.8 C 6.83 g/m*3 17.8 C 0 km/h
1015 29-08-2009 11:06:02 17.9 C 6.26 g/m*3 17.9 C 0 km/h
1016 29-08-2009 11:18:02 17.8 C 6.07 g/m*3 17.8 C 0 km/h
1017 29-08-2009 11:30:02 18.1 C 5.87 g/m*3 18.1 C 0 km/h
1018 29-08-2009 11:42:02 18.4 C 5.82 g/m*3 18.4 C 0 km/h
1019 29-08-2009 11:54:01 18.4 C 5.5 g/m*3 18.4 C 0 km/h
1020 29-08-2009 12:06:02 18.1 C 5.72 g/m*3 18.1 C 0 km/h
1021 29-08-2009 12:18:02 18.4 C 5.98 g/m*3 18.4 C 0 km/h
1022 29-08-2009 12:30:02 19.2 C 5.77 g/m*3 19.2 C 0 km/h
1023 29-08-2009 12:42:02 19.1 C 5.57 g/m*3 19.1 C 0 km/h
1024 29-08-2009 12:54:02 19.3 C 5.14 g/m*3 19.3 C 0 km/h
1025 29-08-2009 13:06:01 19.4 C 5.34 g/m*3 19.4 C 0 km/h
Sensor: Nr:Datum:Temp:Abs-Feuchte:Windchill:Wind:
Aussen-T/F 1026 29-08-2009 13:18:02 19.4 C 5.51 g/m*3 19.4 C 0 km/h
1027 29-08-2009 13:30:02 20.5 C 5.16 g/m*3 20.5 C 0 km/h
1028 29-08-2009 13:42:01 20.2 C 5.07 g/m*3 20.2 C 0 km/h
1029 29-08-2009 13:54:02 19.6 C 5.06 g/m*3 19.6 C 0 km/h
1030 29-08-2009 14:06:01 19.3 C 5.31 g/m*3 19.3 C 0 km/h
1031 29-08-2009 14:18:02 20.6 C 5.19 g/m*3 20.6 C 0 km/h
1032 29-08-2009 14:30:02 20 C 4.49 g/m*3 20 C 0 km/h
1033 29-08-2009 14:42:01 20.4 C 4.95 g/m*3 20.4 C 0 km/h
1034 29-08-2009 14:54:02 20.4 C 4.78 g/m*3 20.4 C 0 km/h
1035 29-08-2009 15:06:02 20.8 C 4.89 g/m*3 20.8 C 0 km/h
1036 29-08-2009 15:18:02 21.6 C 4.74 g/m*3 21.6 C 0 km/h
1037 29-08-2009 15:30:02 22.6 C 4.22 g/m*3 22.6 C 0 km/h
1038 29-08-2009 15:42:02 22.6 C 4.22 g/m*3 22.6 C 0 km/h
1039 29-08-2009 15:54:02 21.3 C 4.1 g/m*3 21.3 C 0 km/h
1040 29-08-2009 16:06:02 21.1 C 4.97 g/m*3 21.1 C 0 km/h
1041 29-08-2009 16:18:01 20.9 C 5.46 g/m*3 20.9 C 0 km/h
1042 29-08-2009 16:30:01 21 C 5.13 g/m*3 21 C 0 km/h
1043 29-08-2009 16:42:02 21.5 C 5.28 g/m*3 21.5 C 0 km/h
1044 29-08-2009 16:54:02 20.5 C 5.34 g/m*3 20.5 C 0 km/h
1045 29-08-2009 17:06:02 20.4 C 5.31 g/m*3 20.4 C 0 km/h
1046 29-08-2009 17:18:02 20.7 C 5.4 g/m*3 20.7 C 0 km/h
1047 29-08-2009 17:30:02 21.5 C 5.09 g/m*3 21.5 C 0 km/h
1048 29-08-2009 17:42:02 20.6 C 5.19 g/m*3 20.6 C 0 km/h
1049 29-08-2009 17:54:01 20.7 C 5.04 g/m*3 20.7 C 0 km/h
1050 29-08-2009 18:06:02 20.7 C 5.22 g/m*3 20.7 C 0 km/h
Sensor: Nr:Datum:Temp:Abs-Feuchte:Windchill:Wind:
Aussen-T/F 1051 29-08-2009 18:18:01 20.3 C 5.1 g/m*3 20.3 C 0 km/h
1052 29-08-2009 18:30:01 19.4 C 6.01 g/m*3 19.4 C 0 km/h
1053 29-08-2009 18:42:01 15.8 C 9.02 g/m*3 15.8 C 0 km/h
1054 29-08-2009 18:54:01 15.4 C 9.72 g/m*3 15.4 C 0 km/h
1055 29-08-2009 19:06:02 16.6 C 10.17 g/m*3 16.6 C 0 km/h
1056 29-08-2009 19:18:01 17.2 C 9.37 g/m*3 17.2 C 0 km/h
1057 29-08-2009 19:30:01 17 C 9.12 g/m*3 17 C 0 km/h
1058 29-08-2009 19:42:02 16.3 C 8.74 g/m*3 16.3 C 0 km/h
1059 29-08-2009 19:54:02 15.6 C 8.51 g/m*3 15.6 C 0 km/h
1060 29-08-2009 20:06:02 14.8 C 8.23 g/m*3 14.8 C 0 km/h
1061 29-08-2009 20:18:01 14.2 C 7.94 g/m*3 14.2 C 0 km/h
1062 29-08-2009 20:30:01 13.9 C 7.79 g/m*3 13.9 C 0 km/h
1063 29-08-2009 20:42:02 13.6 C 7.53 g/m*3 13.6 C 0 km/h
1064 29-08-2009 20:54:02 13.3 C 7.39 g/m*3 13.3 C 0 km/h
1065 29-08-2009 21:06:02 13.2 C 7.12 g/m*3 13.2 C 0 km/h
1066 29-08-2009 21:18:02 13.2 C 6.89 g/m*3 13.2 C 0 km/h
1067 29-08-2009 21:30:02 13 C 6.8 g/m*3 13 C 0 km/h
1068 29-08-2009 21:42:02 12.9 C 7.21 g/m*3 12.9 C 0 km/h
1069 29-08-2009 21:54:02 13 C 6.69 g/m*3 13 C 0 km/h
1070 29-08-2009 22:06:02 13 C 6.92 g/m*3 13 C 0 km/h
1071 29-08-2009 22:18:02 12.8 C 6.94 g/m*3 12.8 C 0 km/h
1072 29-08-2009 22:30:02 12.7 C 6.68 g/m*3 12.7 C 0 km/h
1073 29-08-2009 22:42:02 12.5 C 6.71 g/m*3 12.5 C 0 km/h
1074 29-08-2009 22:55:02 12.3 C 6.52 g/m*3 12.3 C 0 km/h
1075 29-08-2009 23:07:02 12.3 C 6.62 g/m*3 12.3 C 0 km/h
Sensor: Nr:Datum:Temp:Abs-Feuchte:Windchill:Wind:
Aussen-T/F 1076 29-08-2009 23:19:02 12.1 C 6.43 g/m*3 12.1 C 0 km/h
1077 29-08-2009 23:31:02 12 C 6.61 g/m*3 12 C 0 km/h
1078 29-08-2009 23:43:02 11.8 C 6.53 g/m*3 11.8 C 0 km/h
1079 29-08-2009 23:55:02 11.8 C 6.53 g/m*3 11.8 C 0 km/h
1080 30-08-2009 00:07:02 11.6 C 6.44 g/m*3 11.6 C 0 km/h
1081 30-08-2009 00:19:02 11.5 C 6.4 g/m*3 11.5 C 0 km/h
1082 30-08-2009 00:31:02 11.4 C 6.36 g/m*3 11.4 C 0 km/h
1083 30-08-2009 00:43:02 11.2 C 6.39 g/m*3 11.2 C 0 km/h
1084 30-08-2009 00:55:02 11 C 6.31 g/m*3 11 C 0 km/h
1085 30-08-2009 01:07:02 10.8 C 6.33 g/m*3 10.8 C 0 km/h
1086 30-08-2009 01:19:02 10.6 C 6.34 g/m*3 10.6 C 0 km/h
1087 30-08-2009 01:31:02 10.4 C 6.36 g/m*3 10.4 C 0 km/h
1088 30-08-2009 01:43:02 10.5 C 6.5 g/m*3 10.5 C 0 km/h
1089 30-08-2009 01:55:02 10.4 C 6.46 g/m*3 10.4 C 0 km/h
1090 30-08-2009 02:07:02 10.3 C 6.42 g/m*3 10.3 C 0 km/h
1091 30-08-2009 02:19:02 10.4 C 6.46 g/m*3 10.4 C 0 km/h
1092 30-08-2009 02:31:03 10.2 C 6.38 g/m*3 10.2 C 0 km/h
1093 30-08-2009 02:43:03 9.9 C 6.44 g/m*3 9.9 C 0 km/h
1094 30-08-2009 02:55:03 9.7 C 6.45 g/m*3 9.7 C 0 km/h
1095 30-08-2009 03:07:03 9.5 C 6.55 g/m*3 9.5 C 0 km/h
1096 30-08-2009 03:19:03 9.4 C 6.6 g/m*3 9.4 C 0 km/h
1097 30-08-2009 03:31:03 9.3 C 6.56 g/m*3 9.3 C 0 km/h
1098 30-08-2009 03:43:03 9.1 C 6.57 g/m*3 9.1 C 0 km/h
1099 30-08-2009 03:55:03 9.1 C 6.65 g/m*3 9.1 C 0 km/h
1100 30-08-2009 04:07:03 9.1 C 6.74 g/m*3 9.1 C 0 km/h
Sensor: Nr:Datum:Temp:Abs-Feuchte:Windchill:Wind:
Aussen-T/F 1101 30-08-2009 04:19:03 8.9 C 6.75 g/m*3 8.9 C 0 km/h
1102 30-08-2009 04:31:03 8.9 C 6.75 g/m*3 8.9 C 0 km/h
1103 30-08-2009 04:43:03 8.7 C 6.66 g/m*3 8.7 C 0 km/h
1104 30-08-2009 04:55:03 8.8 C 6.88 g/m*3 8.8 C 0 km/h
1105 30-08-2009 05:07:03 8.8 C 7.05 g/m*3 8.8 C 0 km/h
1106 30-08-2009 05:19:03 8.7 C 7.09 g/m*3 8.7 C 0 km/h
1107 30-08-2009 05:31:03 8.7 C 7.01 g/m*3 8.7 C 0 km/h
1108 30-08-2009 05:43:03 8.7 C 7.01 g/m*3 8.7 C 0 km/h
1109 30-08-2009 05:55:03 8.6 C 6.96 g/m*3 8.6 C 0 km/h
1110 30-08-2009 06:07:03 8.6 C 6.96 g/m*3 8.6 C 0 km/h
1111 30-08-2009 06:19:03 8.6 C 7.05 g/m*3 8.6 C 0 km/h
1112 30-08-2009 06:31:03 8.7 C 7.01 g/m*3 8.7 C 0 km/h
1113 30-08-2009 06:43:04 8.6 C 6.87 g/m*3 8.6 C 0 km/h
1114 30-08-2009 06:55:01 8.5 C 6.83 g/m*3 8.5 C 0 km/h
1115 30-08-2009 07:07:02 8.6 C 6.96 g/m*3 8.6 C 0 km/h
1116 30-08-2009 07:19:01 8.8 C 7.05 g/m*3 8.8 C 0 km/h
1117 30-08-2009 07:31:01 9 C 6.88 g/m*3 9 C 0 km/h
1118 30-08-2009 07:43:01 9.1 C 6.92 g/m*3 9.1 C 0 km/h
1119 30-08-2009 07:55:01 9.6 C 7.15 g/m*3 9.6 C 0 km/h
1120 30-08-2009 08:07:02 9.9 C 7.19 g/m*3 9.9 C 0 km/h
1121 30-08-2009 08:19:02 10.3 C 7.09 g/m*3 10.3 C 0 km/h
1122 30-08-2009 08:31:01 10.8 C 7.02 g/m*3 10.8 C 0 km/h
1123 30-08-2009 08:43:01 11.2 C 6.99 g/m*3 11.2 C 0 km/h
1124 30-08-2009 08:55:01 11.4 C 7.08 g/m*3 11.4 C 0 km/h
1125 30-08-2009 09:07:02 11.7 C 7.22 g/m*3 11.7 C 0 km/h
Sensor: Nr:Datum:Temp:Abs-Feuchte:Windchill:Wind:
Aussen-T/F 1126 30-08-2009 09:19:02 12.4 C 6.99 g/m*3 12.4 C 0 km/h
1127 30-08-2009 09:31:02 12.8 C 7.06 g/m*3 12.8 C 0 km/h
1128 30-08-2009 09:43:02 13.4 C 6.86 g/m*3 13.4 C 0 km/h
1129 30-08-2009 09:55:02 13.8 C 6.91 g/m*3 13.8 C 0 km/h
1130 30-08-2009 10:07:02 14.3 C 6.88 g/m*3 14.3 C 0 km/h
1131 30-08-2009 10:19:01 14.7 C 6.55 g/m*3 14.7 C 0 km/h
1132 30-08-2009 10:31:01 15.2 C 6.62 g/m*3 15.2 C 0 km/h
1133 30-08-2009 10:43:01 15.7 C 6.42 g/m*3 15.7 C 0 km/h
1134 30-08-2009 10:55:01 16.2 C 6.34 g/m*3 16.2 C 0 km/h
1135 30-08-2009 11:07:02 16.6 C 6.07 g/m*3 16.6 C 0 km/h
1136 30-08-2009 11:19:02 17 C 6.08 g/m*3 17 C 0 km/h
1137 30-08-2009 11:31:01 17.7 C 6.19 g/m*3 17.7 C 0 km/h
1138 30-08-2009 11:43:01 18.1 C 6.33 g/m*3 18.1 C 0 km/h
1139 30-08-2009 11:55:01 18.4 C 6.29 g/m*3 18.4 C 0 km/h
1140 30-08-2009 12:07:02 18.9 C 6.16 g/m*3 18.9 C 0 km/h
1141 30-08-2009 12:19:02 19.2 C 5.94 g/m*3 19.2 C 0 km/h
1142 30-08-2009 12:31:01 19.3 C 5.97 g/m*3 19.3 C 0 km/h
1143 30-08-2009 12:43:01 20.1 C 5.91 g/m*3 20.1 C 0 km/h
1144 30-08-2009 12:55:02 20.7 C 5.94 g/m*3 20.7 C 0 km/h
1145 30-08-2009 13:07:01 20.8 C 5.61 g/m*3 20.8 C 0 km/h
1146 30-08-2009 13:19:02 20.8 C 5.61 g/m*3 20.8 C 0 km/h
1147 30-08-2009 13:31:01 21.4 C 5.62 g/m*3 21.4 C 0 km/h
1148 30-08-2009 13:43:01 21.4 C 5.44 g/m*3 21.4 C 0 km/h
1149 30-08-2009 13:55:02 22 C 5.24 g/m*3 22 C 0 km/h
1150 30-08-2009 14:07:01 22.3 C 5.13 g/m*3 22.3 C 0 km/h
Sensor: Nr:Datum:Temp:Abs-Feuchte:Windchill:Wind:
Aussen-T/F 1151 30-08-2009 14:19:01 22.9 C 4.7 g/m*3 22.9 C 0 km/h
1152 30-08-2009 14:31:01 22.8 C 4.27 g/m*3 22.8 C 0 km/h
1153 30-08-2009 14:43:01 23.5 C 4.23 g/m*3 23.5 C 0 km/h
1154 30-08-2009 14:55:02 23.7 C 4.28 g/m*3 23.7 C 0 km/h
1155 30-08-2009 15:07:02 23.9 C 4.33 g/m*3 23.9 C 0 km/h
1156 30-08-2009 15:19:02 24.2 C 4.4 g/m*3 24.2 C 0 km/h
1157 30-08-2009 15:31:02 24.5 C 4.48 g/m*3 24.5 C 0 km/h
1158 30-08-2009 15:43:02 24.7 C 4.53 g/m*3 24.7 C 0 km/h
1159 30-08-2009 15:55:02 25.4 C 4.71 g/m*3 25.4 C 0 km/h
1160 30-08-2009 16:07:01 25.1 C 4.63 g/m*3 25.1 C 0 km/h
1161 30-08-2009 16:19:02 26.3 C 4.95 g/m*3 26.3 C 0 km/h
1162 30-08-2009 16:31:01 26.2 C 4.92 g/m*3 26.2 C 0 km/h
1163 30-08-2009 16:43:01 26.1 C 4.9 g/m*3 26.1 C 0 km/h
1164 30-08-2009 16:55:02 25.9 C 4.84 g/m*3 25.9 C 0 km/h
1165 30-08-2009 17:07:01 26.2 C 4.92 g/m*3 26.2 C 0 km/h
1166 30-08-2009 17:19:02 27.2 C 5.2 g/m*3 27.2 C 0 km/h
1167 30-08-2009 17:31:02 27.2 C 5.2 g/m*3 27.2 C 0 km/h
1168 30-08-2009 17:43:02 28.7 C 5.65 g/m*3 28.7 C 0 km/h
1169 30-08-2009 17:55:02 27 C 5.15 g/m*3 27 C 0 km/h
1170 30-08-2009 18:07:01 26.5 C 5.01 g/m*3 26.5 C 0 km/h
1171 30-08-2009 18:19:01 26.9 C 5.12 g/m*3 26.9 C 0 km/h
1172 30-08-2009 18:31:02 27.3 C 5.23 g/m*3 27.3 C 0 km/h
1173 30-08-2009 18:43:02 26.8 C 5.09 g/m*3 26.8 C 0 km/h
1174 30-08-2009 18:55:02 27.3 C 5.23 g/m*3 27.3 C 0 km/h
1175 30-08-2009 19:07:02 26.7 C 5.06 g/m*3 26.7 C 0 km/h
Sensor: Nr:Datum:Temp:Abs-Feuchte:Windchill:Wind:
Aussen-T/F 1176 30-08-2009 19:19:02 26.4 C 4.98 g/m*3 26.4 C 0 km/h
1177 30-08-2009 19:31:02 26.6 C 5.03 g/m*3 26.6 C 0 km/h
1178 30-08-2009 19:43:02 24.7 C 4.98 g/m*3 24.7 C 0 km/h
1179 30-08-2009 19:55:01 23.9 C 5.62 g/m*3 23.9 C 0 km/h
1180 30-08-2009 20:07:02 22.9 C 5.93 g/m*3 22.9 C 0 km/h
1181 30-08-2009 20:19:01 21.7 C 6.1 g/m*3 21.7 C 0 km/h
1182 30-08-2009 20:31:01 21 C 6.05 g/m*3 21 C 0 km/h
1183 30-08-2009 20:43:01 20.3 C 6.33 g/m*3 20.3 C 0 km/h
1184 30-08-2009 20:55:01 19.9 C 6.36 g/m*3 19.9 C 0 km/h
1185 30-08-2009 21:08:03 19.5 C 6.55 g/m*3 19.5 C 0 km/h
1186 30-08-2009 21:20:03 18.9 C 6.48 g/m*3 18.9 C 0 km/h
1187 30-08-2009 21:32:03 18.4 C 6.61 g/m*3 18.4 C 0 km/h
1188 30-08-2009 21:44:03 18.1 C 6.49 g/m*3 18.1 C 0 km/h
1189 30-08-2009 21:56:03 17.9 C 6.72 g/m*3 17.9 C 0 km/h
1190 30-08-2009 22:08:03 17.5 C 6.86 g/m*3 17.5 C 0 km/h
1191 30-08-2009 22:20:03 17.4 C 6.82 g/m*3 17.4 C 0 km/h
1192 30-08-2009 22:32:03 17 C 6.8 g/m*3 17 C 0 km/h
1193 30-08-2009 22:44:03 16.8 C 6.86 g/m*3 16.8 C 0 km/h
1194 30-08-2009 22:56:03 16.7 C 6.82 g/m*3 16.7 C 0 km/h
1195 30-08-2009 23:08:03 16.4 C 6.7 g/m*3 16.4 C 0 km/h
1196 30-08-2009 23:20:03 16 C 6.68 g/m*3 16 C 0 km/h
1197 30-08-2009 23:32:03 15.8 C 6.87 g/m*3 15.8 C 0 km/h
1198 30-08-2009 23:44:03 15.6 C 6.92 g/m*3 15.6 C 0 km/h
1199 30-08-2009 23:56:03 15.4 C 6.96 g/m*3 15.4 C 0 km/h
1200 31-08-2009 00:08:03 15.1 C 6.97 g/m*3 15.1 C 0 km/h
Sensor: Nr:Datum:Temp:Abs-Feuchte:Windchill:Wind:
Aussen-T/F 1201 31-08-2009 00:20:03 14.8 C 7.09 g/m*3 14.8 C 0 km/h
1202 31-08-2009 00:32:03 14.7 C 7.05 g/m*3 14.7 C 0 km/h
1203 31-08-2009 00:44:03 14.5 C 7.09 g/m*3 14.5 C 0 km/h
1204 31-08-2009 00:56:04 14.3 C 7 g/m*3 14.3 C 0 km/h
1205 31-08-2009 01:08:04 14.1 C 7.28 g/m*3 14.1 C 0 km/h
1206 31-08-2009 01:20:04 13.9 C 7.19 g/m*3 13.9 C 0 km/h
1207 31-08-2009 01:32:04 13.7 C 7.22 g/m*3 13.7 C 0 km/h
1208 31-08-2009 01:44:04 13.6 C 7.18 g/m*3 13.6 C 0 km/h
1209 31-08-2009 01:56:04 13.4 C 7.21 g/m*3 13.4 C 0 km/h
1210 31-08-2009 02:08:04 13.2 C 7.12 g/m*3 13.2 C 0 km/h
1211 31-08-2009 02:20:04 13 C 7.14 g/m*3 13 C 0 km/h
1212 31-08-2009 02:32:04 12.9 C 7.21 g/m*3 12.9 C 0 km/h
1213 31-08-2009 02:44:04 12.6 C 7.19 g/m*3 12.6 C 0 km/h
1214 31-08-2009 02:56:04 12.4 C 7.21 g/m*3 12.4 C 0 km/h
1215 31-08-2009 03:08:04 12.3 C 7.17 g/m*3 12.3 C 0 km/h
1216 31-08-2009 03:20:04 12.2 C 7.12 g/m*3 12.2 C 0 km/h
1217 31-08-2009 03:32:04 12.2 C 7.12 g/m*3 12.2 C 0 km/h
1218 31-08-2009 03:44:04 12.3 C 7.28 g/m*3 12.3 C 0 km/h
1219 31-08-2009 03:56:04 12 C 7.25 g/m*3 12 C 0 km/h
1220 31-08-2009 04:08:04 11.7 C 7.22 g/m*3 11.7 C 0 km/h
1221 31-08-2009 04:20:04 11.6 C 7.17 g/m*3 11.6 C 0 km/h
1222 31-08-2009 04:32:04 11.5 C 7.13 g/m*3 11.5 C 0 km/h
1223 31-08-2009 04:44:05 11.4 C 7.08 g/m*3 11.4 C 0 km/h
1224 31-08-2009 04:56:05 11.2 C 6.99 g/m*3 11.2 C 0 km/h
1225 31-08-2009 05:08:05 11.1 C 7.05 g/m*3 11.1 C 0 km/h
Sensor: Nr:Datum:Temp:Abs-Feuchte:Windchill:Wind:
Aussen-T/F 1226 31-08-2009 05:20:05 10.9 C 7.16 g/m*3 10.9 C 0 km/h
1227 31-08-2009 05:32:05 10.8 C 7.12 g/m*3 10.8 C 0 km/h
1228 31-08-2009 05:44:05 10.6 C 7.03 g/m*3 10.6 C 0 km/h
1229 31-08-2009 05:56:05 10.6 C 7.03 g/m*3 10.6 C 0 km/h
1230 31-08-2009 06:08:05 10.5 C 7.08 g/m*3 10.5 C 0 km/h
1231 31-08-2009 06:20:05 10.3 C 7.09 g/m*3 10.3 C 0 km/h
1232 31-08-2009 06:32:05 10.1 C 7 g/m*3 10.1 C 0 km/h
1233 31-08-2009 06:44:05 10.1 C 7 g/m*3 10.1 C 0 km/h
1234 31-08-2009 06:56:05 10.1 C 7 g/m*3 10.1 C 0 km/h
1235 31-08-2009 07:08:05 10.2 C 7.04 g/m*3 10.2 C 0 km/h
1236 31-08-2009 07:20:05 10.2 C 7.04 g/m*3 10.2 C 0 km/h
1237 31-08-2009 07:32:05 10.2 C 7.04 g/m*3 10.2 C 0 km/h
1238 31-08-2009 07:44:05 10.3 C 7.09 g/m*3 10.3 C 0 km/h
1239 31-08-2009 07:56:05 10.4 C 7.13 g/m*3 10.4 C 0 km/h
1240 31-08-2009 08:08:05 10.4 C 7.13 g/m*3 10.4 C 0 km/h
1241 31-08-2009 08:20:05 10.5 C 7.18 g/m*3 10.5 C 0 km/h
1242 31-08-2009 08:32:05 10.8 C 7.31 g/m*3 10.8 C 0 km/h
1243 31-08-2009 08:44:06 11 C 7.21 g/m*3 11 C 0 km/h
1244 31-08-2009 08:56:06 11.2 C 7.2 g/m*3 11.2 C 0 km/h
1245 31-08-2009 09:08:06 11.5 C 7.33 g/m*3 11.5 C 0 km/h
1246 31-08-2009 09:20:03 11.9 C 7.52 g/m*3 11.9 C 0 km/h
1247 31-08-2009 09:32:03 12.5 C 7.59 g/m*3 12.5 C 0 km/h
1248 31-08-2009 09:44:03 13.2 C 7.46 g/m*3 13.2 C 0 km/h
1249 31-08-2009 09:56:02 13.9 C 7.43 g/m*3 13.9 C 0 km/h
1250 31-08-2009 10:08:02 14.7 C 7.43 g/m*3 14.7 C 0 km/h
Sensor: Nr:Datum:Temp:Abs-Feuchte:Windchill:Wind:
Aussen-T/F 1251 31-08-2009 10:20:02 15.6 C 7.45 g/m*3 15.6 C 0 km/h
1252 31-08-2009 10:32:01 16.4 C 7.54 g/m*3 16.4 C 0 km/h
1253 31-08-2009 10:44:01 17.1 C 7.42 g/m*3 17.1 C 0 km/h
1254 31-08-2009 10:56:02 17.8 C 7.59 g/m*3 17.8 C 0 km/h
1255 31-08-2009 11:08:01 18.5 C 7.59 g/m*3 18.5 C 0 km/h
1256 31-08-2009 11:20:02 19.1 C 7.54 g/m*3 19.1 C 0 km/h
1257 31-08-2009 11:32:01 19.7 C 7.64 g/m*3 19.7 C 0 km/h
1258 31-08-2009 11:44:01 20.2 C 7.87 g/m*3 20.2 C 0 km/h
1259 31-08-2009 11:56:02 21.1 C 7.37 g/m*3 21.1 C 0 km/h
1260 31-08-2009 12:08:01 21.9 C 7.53 g/m*3 21.9 C 0 km/h
1261 31-08-2009 12:20:01 22.5 C 7.39 g/m*3 22.5 C 0 km/h
1262 31-08-2009 12:32:01 22.9 C 6.34 g/m*3 22.9 C 0 km/h
1263 31-08-2009 12:44:01 23.4 C 6.52 g/m*3 23.4 C 0 km/h
1264 31-08-2009 12:56:02 23.7 C 5.56 g/m*3 23.7 C 0 km/h
1265 31-08-2009 13:08:02 24.5 C 5.82 g/m*3 24.5 C 0 km/h
1266 31-08-2009 13:20:02 24.9 C 6.18 g/m*3 24.9 C 0 km/h
1267 31-08-2009 13:32:02 25.6 C 5.71 g/m*3 25.6 C 0 km/h
1268 31-08-2009 13:44:02 25.9 C 5.57 g/m*3 25.9 C 0 km/h
1269 31-08-2009 13:56:02 26.6 C 5.54 g/m*3 26.6 C 0 km/h
1270 31-08-2009 14:08:01 26.9 C 5.37 g/m*3 26.9 C 0 km/h
1271 31-08-2009 14:20:01 27.3 C 5.23 g/m*3 27.3 C 0 km/h
1272 31-08-2009 14:32:02 28 C 5.44 g/m*3 28 C 0 km/h
1273 31-08-2009 14:44:02 28.2 C 5.5 g/m*3 28.2 C 0 km/h
1274 31-08-2009 14:56:02 28.7 C 5.65 g/m*3 28.7 C 0 km/h
1275 31-08-2009 15:08:02 28.4 C 5.56 g/m*3 28.4 C 0 km/h
Sensor: Nr:Datum:Temp:Abs-Feuchte:Windchill:Wind:
Aussen-T/F 1276 31-08-2009 15:20:02 28.5 C 5.59 g/m*3 28.5 C 0 km/h
1277 31-08-2009 15:32:02 29.2 C 5.81 g/m*3 29.2 C 0 km/h
1278 31-08-2009 15:44:02 29.5 C 5.9 g/m*3 29.5 C 0 km/h
1279 31-08-2009 15:56:01 30 C 6.06 g/m*3 30 C 0 km/h
1280 31-08-2009 16:08:02 30.6 C 6.26 g/m*3 30.6 C 0 km/h
1281 31-08-2009 16:20:01 31 C 6.4 g/m*3 31 C 0 km/h
1282 31-08-2009 16:32:01 31.6 C 6.61 g/m*3 31.6 C 0 km/h
1283 31-08-2009 16:44:02 31.5 C 6.57 g/m*3 31.5 C 0 km/h
1284 31-08-2009 16:56:01 31.9 C 6.72 g/m*3 31.9 C 0 km/h
1285 31-08-2009 17:08:02 31.7 C 6.64 g/m*3 31.7 C 0 km/h
1286 31-08-2009 17:20:01 31.9 C 6.72 g/m*3 31.9 C 0 km/h
1287 31-08-2009 17:32:02 31.9 C 6.72 g/m*3 31.9 C 0 km/h
1288 31-08-2009 17:44:02 31.7 C 6.64 g/m*3 31.7 C 0 km/h
1289 31-08-2009 17:56:02 31.7 C 6.64 g/m*3 31.7 C 0 km/h
1290 31-08-2009 18:08:02 31.8 C 6.68 g/m*3 31.8 C 0 km/h
1291 31-08-2009 18:20:01 31.7 C 6.64 g/m*3 31.7 C 0 km/h
1292 31-08-2009 18:32:02 31.4 C 6.54 g/m*3 31.4 C 0 km/h
1293 31-08-2009 18:44:02 31.5 C 6.57 g/m*3 31.5 C 0 km/h
1294 31-08-2009 18:56:01 31 C 6.4 g/m*3 31 C 0 km/h
1295 31-08-2009 19:08:02 30.9 C 6.37 g/m*3 30.9 C 0 km/h
1296 31-08-2009 19:20:02 30.7 C 6.3 g/m*3 30.7 C 0 km/h
1297 31-08-2009 19:32:02 30.3 C 6.16 g/m*3 30.3 C 0 km/h
1298 31-08-2009 19:44:02 29.1 C 5.78 g/m*3 29.1 C 0 km/h
1299 31-08-2009 19:56:01 27.2 C 5.46 g/m*3 27.2 C 0 km/h
1300 31-08-2009 20:08:02 25.6 C 5.71 g/m*3 25.6 C 0 km/h
Sensor: Nr:Datum:Temp:Abs-Feuchte:Windchill:Wind:
Aussen-T/F 1301 31-08-2009 20:20:02 24.5 C 5.6 g/m*3 24.5 C 0 km/h
1302 31-08-2009 20:32:02 23.7 C 5.56 g/m*3 23.7 C 0 km/h
1303 31-08-2009 20:44:02 22.9 C 5.52 g/m*3 22.9 C 0 km/h
1304 31-08-2009 20:56:02 22.6 C 5.62 g/m*3 22.6 C 0 km/h
1305 31-08-2009 21:08:02 22.3 C 5.53 g/m*3 22.3 C 0 km/h
1306 31-08-2009 21:20:02 21.8 C 5.76 g/m*3 21.8 C 0 km/h
1307 31-08-2009 21:32:01 21.5 C 5.66 g/m*3 21.5 C 0 km/h
1308 31-08-2009 21:44:01 21.2 C 5.56 g/m*3 21.2 C 0 km/h
1309 31-08-2009 21:57:02 20.8 C 5.79 g/m*3 20.8 C 0 km/h
1310 31-08-2009 22:09:02 20.5 C 5.69 g/m*3 20.5 C 0 km/h
1311 31-08-2009 22:21:03 20.2 C 5.77 g/m*3 20.2 C 0 km/h
1312 31-08-2009 22:33:03 19.9 C 6.01 g/m*3 19.9 C 0 km/h
1313 31-08-2009 22:45:03 19.7 C 5.94 g/m*3 19.7 C 0 km/h
1314 31-08-2009 22:57:03 19.5 C 6.04 g/m*3 19.5 C 0 km/h
1315 31-08-2009 23:09:03 19.2 C 6.27 g/m*3 19.2 C 0 km/h
1316 31-08-2009 23:21:03 18.9 C 6.48 g/m*3 18.9 C 0 km/h
1317 31-08-2009 23:33:03 18.6 C 6.68 g/m*3 18.6 C 0 km/h
1318 31-08-2009 23:45:03 18.3 C 6.57 g/m*3 18.3 C 0 km/h
1319 31-08-2009 23:57:03 18.1 C 6.49 g/m*3 18.1 C 0 km/h
1320 01-09-2009 00:09:03 17.9 C 6.57 g/m*3 17.9 C 0 km/h
1321 01-09-2009 00:21:03 17.7 C 6.79 g/m*3 17.7 C 0 km/h
1322 01-09-2009 00:33:03 17.3 C 6.78 g/m*3 17.3 C 0 km/h
1323 01-09-2009 00:45:03 17.2 C 6.74 g/m*3 17.2 C 0 km/h
1324 01-09-2009 00:57:03 16.9 C 6.9 g/m*3 16.9 C 0 km/h
1325 01-09-2009 01:09:03 16.8 C 6.86 g/m*3 16.8 C 0 km/h
Sensor: Nr:Datum:Temp:Abs-Feuchte:Windchill:Wind:
Aussen-T/F 1326 01-09-2009 01:21:03 16.6 C 6.92 g/m*3 16.6 C 0 km/h
1327 01-09-2009 01:33:03 16.4 C 6.84 g/m*3 16.4 C 0 km/h
1328 01-09-2009 01:45:03 16.2 C 6.9 g/m*3 16.2 C 0 km/h
1329 01-09-2009 01:57:03 16.1 C 7.13 g/m*3 16.1 C 0 km/h
1330 01-09-2009 02:09:03 16.2 C 7.17 g/m*3 16.2 C 0 km/h
1331 01-09-2009 02:21:04 15.9 C 7.31 g/m*3 15.9 C 0 km/h
1332 01-09-2009 02:33:04 15.8 C 7.27 g/m*3 15.8 C 0 km/h
1333 01-09-2009 02:45:04 15.6 C 7.31 g/m*3 15.6 C 0 km/h
1334 01-09-2009 02:57:04 15.5 C 7.27 g/m*3 15.5 C 0 km/h
1335 01-09-2009 03:09:04 15.4 C 7.09 g/m*3 15.4 C 0 km/h
1336 01-09-2009 03:21:04 15.4 C 6.96 g/m*3 15.4 C 0 km/h
1337 01-09-2009 03:33:04 15.4 C 7.09 g/m*3 15.4 C 0 km/h
1338 01-09-2009 03:45:04 15.2 C 7.01 g/m*3 15.2 C 0 km/h
1339 01-09-2009 03:57:04 15.2 C 7.4 g/m*3 15.2 C 0 km/h
1340 01-09-2009 04:09:04 14.9 C 7.39 g/m*3 14.9 C 0 km/h
1341 01-09-2009 04:21:04 14.8 C 7.6 g/m*3 14.8 C 0 km/h
1342 01-09-2009 04:33:04 14.7 C 7.55 g/m*3 14.7 C 0 km/h
1343 01-09-2009 04:45:04 14.4 C 7.54 g/m*3 14.4 C 0 km/h
1344 01-09-2009 04:57:04 14.2 C 7.57 g/m*3 14.2 C 0 km/h
1345 01-09-2009 05:09:04 14.3 C 7.62 g/m*3 14.3 C 0 km/h
1346 01-09-2009 05:21:04 14.2 C 7.57 g/m*3 14.2 C 0 km/h
1347 01-09-2009 05:33:04 14.1 C 7.65 g/m*3 14.1 C 0 km/h
1348 01-09-2009 05:45:04 14 C 7.72 g/m*3 14 C 0 km/h
1349 01-09-2009 05:57:04 13.9 C 7.79 g/m*3 13.9 C 0 km/h
1350 01-09-2009 06:09:04 13.8 C 7.74 g/m*3 13.8 C 0 km/h
Sensor: Nr:Datum:Temp:Abs-Feuchte:Windchill:Wind:
Aussen-T/F 1351 01-09-2009 06:21:04 13.7 C 7.82 g/m*3 13.7 C 0 km/h
1352 01-09-2009 06:33:05 13.6 C 8 g/m*3 13.6 C 0 km/h
1353 01-09-2009 06:45:05 13.5 C 8.07 g/m*3 13.5 C 0 km/h
1354 01-09-2009 06:57:05 13.5 C 8.07 g/m*3 13.5 C 0 km/h
1355 01-09-2009 07:09:01 13.6 C 8.24 g/m*3 13.6 C 0 km/h
1356 01-09-2009 07:21:02 13.8 C 8.34 g/m*3 13.8 C 0 km/h
1357 01-09-2009 07:33:02 13.9 C 8.39 g/m*3 13.9 C 0 km/h
1358 01-09-2009 07:45:02 14 C 8.32 g/m*3 14 C 0 km/h
1359 01-09-2009 07:57:03 14.1 C 8.37 g/m*3 14.1 C 0 km/h
1360 01-09-2009 08:09:02 14.2 C 8.3 g/m*3 14.2 C 0 km/h
1361 01-09-2009 08:21:02 14.4 C 8.53 g/m*3 14.4 C 0 km/h
1362 01-09-2009 08:33:02 14.4 C 8.41 g/m*3 14.4 C 0 km/h
1363 01-09-2009 08:45:02 15.1 C 8.77 g/m*3 15.1 C 0 km/h
1364 01-09-2009 08:57:02 15.5 C 8.86 g/m*3 15.5 C 0 km/h
1365 01-09-2009 09:09:02 15.9 C 8.94 g/m*3 15.9 C 0 km/h
1366 01-09-2009 09:21:02 16.4 C 9.07 g/m*3 16.4 C 0 km/h
1367 01-09-2009 09:33:01 17 C 8.97 g/m*3 17 C 0 km/h
1368 01-09-2009 09:45:02 17.7 C 9.2 g/m*3 17.7 C 0 km/h
1369 01-09-2009 09:57:02 18.2 C 9.17 g/m*3 18.2 C 0 km/h
1370 01-09-2009 10:09:01 18.9 C 9.23 g/m*3 18.9 C 0 km/h
1371 01-09-2009 10:21:01 19.6 C 9.45 g/m*3 19.6 C 0 km/h
1372 01-09-2009 10:33:01 20.6 C 9.84 g/m*3 20.6 C 0 km/h
1373 01-09-2009 10:45:02 23.2 C 9.77 g/m*3 23.2 C 0 km/h
1374 01-09-2009 10:57:02 24.4 C 9.12 g/m*3 24.4 C 0 km/h
1375 01-09-2009 11:09:01 25 C 8.98 g/m*3 25 C 0 km/h
Sensor: Nr:Datum:Temp:Abs-Feuchte:Windchill:Wind:
Aussen-T/F 1376 01-09-2009 11:21:02 25.4 C 8.95 g/m*3 25.4 C 0 km/h
1377 01-09-2009 11:33:02 25.7 C 8.86 g/m*3 25.7 C 0 km/h
1378 01-09-2009 11:45:01 26.4 C 8.96 g/m*3 26.4 C 0 km/h
1379 01-09-2009 11:57:01 26.6 C 8.81 g/m*3 26.6 C 0 km/h
1380 01-09-2009 12:09:02 27.5 C 8.47 g/m*3 27.5 C 0 km/h
1381 01-09-2009 12:21:01 28.3 C 8.29 g/m*3 28.3 C 0 km/h
1382 01-09-2009 12:33:02 28.8 C 8.52 g/m*3 28.8 C 0 km/h
1383 01-09-2009 12:45:02 28.7 C 8.48 g/m*3 28.7 C 0 km/h
1384 01-09-2009 12:57:02 28.9 C 8.28 g/m*3 28.9 C 0 km/h
1385 01-09-2009 13:09:02 29.1 C 8.09 g/m*3 29.1 C 0 km/h
1386 01-09-2009 13:21:01 29.2 C 8.13 g/m*3 29.2 C 0 km/h
1387 01-09-2009 13:33:02 29.1 C 8.66 g/m*3 29.1 C 0 km/h
1388 01-09-2009 13:45:02 30 C 8.49 g/m*3 30 C 0 km/h
1389 01-09-2009 13:57:02 29.9 C 8.45 g/m*3 29.9 C 0 km/h
1390 01-09-2009 14:09:02 29.5 C 8.26 g/m*3 29.5 C 0 km/h
1391 01-09-2009 14:21:01 29.4 C 8.51 g/m*3 29.4 C 0 km/h
1392 01-09-2009 14:33:02 30.1 C 8.54 g/m*3 30.1 C 0 km/h
1393 01-09-2009 14:45:02 29.9 C 8.14 g/m*3 29.9 C 0 km/h
1394 01-09-2009 14:57:02 30.2 C 8.28 g/m*3 30.2 C 0 km/h
1395 01-09-2009 15:09:02 29.5 C 8.26 g/m*3 29.5 C 0 km/h
1396 01-09-2009 15:21:01 28.3 C 8.57 g/m*3 28.3 C 0 km/h
1397 01-09-2009 15:33:02 27.8 C 8.61 g/m*3 27.8 C 0 km/h
1398 01-09-2009 15:45:02 27.7 C 8.83 g/m*3 27.7 C 0 km/h
1399 01-09-2009 15:57:02 27.1 C 8.8 g/m*3 27.1 C 0 km/h
1400 01-09-2009 16:09:02 25.2 C 10.01 g/m*3 25.2 C 0 km/h
Sensor: Nr:Datum:Temp:Abs-Feuchte:Windchill:Wind:
Aussen-T/F 1401 01-09-2009 16:21:02 24.2 C 11 g/m*3 24.2 C 0 km/h
1402 01-09-2009 16:33:02 23.4 C 11.57 g/m*3 23.4 C 0 km/h
1403 01-09-2009 16:45:02 23.1 C 11.37 g/m*3 23.1 C 0 km/h
1404 01-09-2009 16:57:02 22.9 C 12.06 g/m*3 22.9 C 0 km/h
1405 01-09-2009 17:09:02 21.4 C 12.94 g/m*3 21.4 C 0 km/h
1406 01-09-2009 17:21:02 20.8 C 13.4 g/m*3 20.8 C 0 km/h
1407 01-09-2009 17:33:01 20.5 C 14.06 g/m*3 20.5 C 0 km/h
1408 01-09-2009 17:45:02 20.3 C 14.07 g/m*3 20.3 C 0 km/h
1409 01-09-2009 17:57:02 20.3 C 14.25 g/m*3 20.3 C 0 km/h
1410 01-09-2009 18:09:01 20.1 C 14.08 g/m*3 20.1 C 0 km/h
1411 01-09-2009 18:21:02 20.1 C 14.25 g/m*3 20.1 C 0 km/h
1412 01-09-2009 18:33:01 20 C 14.34 g/m*3 20 C 0 km/h
1413 01-09-2009 18:45:02 19.9 C 14.43 g/m*3 19.9 C 0 km/h
1414 01-09-2009 18:57:02 20.1 C 14.6 g/m*3 20.1 C 0 km/h
1415 01-09-2009 19:09:02 20 C 14.52 g/m*3 20 C 0 km/h
1416 01-09-2009 19:21:02 19.8 C 14.52 g/m*3 19.8 C 0 km/h
1417 01-09-2009 19:33:03 20.1 C 14.78 g/m*3 20.1 C 0 km/h
1418 01-09-2009 19:45:02 19.9 C 14.78 g/m*3 19.9 C 0 km/h
1419 01-09-2009 19:57:02 20 C 14.52 g/m*3 20 C 0 km/h
1420 01-09-2009 20:09:02 19.7 C 14.43 g/m*3 19.7 C 0 km/h
1421 01-09-2009 20:21:02 19.8 C 14.52 g/m*3 19.8 C 0 km/h
1422 01-09-2009 20:33:02 20 C 14.34 g/m*3 20 C 0 km/h
1423 01-09-2009 20:45:02 19.8 C 14.35 g/m*3 19.8 C 0 km/h
1424 01-09-2009 20:57:02 19.8 C 14.18 g/m*3 19.8 C 0 km/h
1425 01-09-2009 21:10:02 19.8 C 14.18 g/m*3 19.8 C 0 km/h
Sensor: Nr:Datum:Temp:Abs-Feuchte:Windchill:Wind:
Aussen-T/F 1426 01-09-2009 21:22:02 19.7 C 13.92 g/m*3 19.7 C 0 km/h
1427 01-09-2009 21:34:02 19.7 C 13.92 g/m*3 19.7 C 0 km/h
1428 01-09-2009 21:46:02 19.7 C 13.58 g/m*3 19.7 C 0 km/h
1429 01-09-2009 21:58:02 19.5 C 13.26 g/m*3 19.5 C 0 km/h
1430 01-09-2009 22:10:02 19.6 C 13.51 g/m*3 19.6 C 0 km/h
1431 01-09-2009 22:22:02 19.5 C 13.43 g/m*3 19.5 C 0 km/h
1432 01-09-2009 22:34:02 19.7 C 13.41 g/m*3 19.7 C 0 km/h
1433 01-09-2009 22:46:02 19.7 C 13.25 g/m*3 19.7 C 0 km/h
1434 01-09-2009 22:58:02 19.4 C 13.18 g/m*3 19.4 C 0 km/h
1435 01-09-2009 23:10:02 19.3 C 13.27 g/m*3 19.3 C 0 km/h
1436 01-09-2009 23:22:03 19.4 C 13.01 g/m*3 19.4 C 0 km/h
1437 01-09-2009 23:34:03 19.1 C 12.62 g/m*3 19.1 C 0 km/h
1438 01-09-2009 23:46:03 18.7 C 12.65 g/m*3 18.7 C 0 km/h
1439 01-09-2009 23:58:03 18.5 C 12.66 g/m*3 18.5 C 0 km/h
1440 02-09-2009 00:10:03 18.8 C 13.05 g/m*3 18.8 C 0 km/h
1441 02-09-2009 00:22:03 18.6 C 12.73 g/m*3 18.6 C 0 km/h
1442 02-09-2009 00:34:03 18.4 C 12.74 g/m*3 18.4 C 0 km/h
1443 02-09-2009 00:46:03 18.2 C 12.59 g/m*3 18.2 C 0 km/h
1444 02-09-2009 00:58:03 17.8 C 12.6 g/m*3 17.8 C 0 km/h
1445 02-09-2009 01:10:03 17.6 C 12.6 g/m*3 17.6 C 0 km/h
1446 02-09-2009 01:22:03 17.3 C 12.23 g/m*3 17.3 C 0 km/h
1447 02-09-2009 01:34:03 17.2 C 12.01 g/m*3 17.2 C 0 km/h
1448 02-09-2009 01:46:03 17.2 C 11.72 g/m*3 17.2 C 0 km/h
1449 02-09-2009 01:58:03 17.2 C 11.72 g/m*3 17.2 C 0 km/h
1450 02-09-2009 02:10:03 17 C 11.58 g/m*3 17 C 0 km/h
Sensor: Nr:Datum:Temp:Abs-Feuchte:Windchill:Wind:
Aussen-T/F 1451 02-09-2009 02:22:03 17 C 11.29 g/m*3 17 C 0 km/h
1452 02-09-2009 02:34:03 16.8 C 11.15 g/m*3 16.8 C 0 km/h
1453 02-09-2009 02:46:03 16.8 C 11.15 g/m*3 16.8 C 0 km/h
1454 02-09-2009 02:58:03 16.7 C 11.08 g/m*3 16.7 C 0 km/h
1455 02-09-2009 03:10:04 16.4 C 11.17 g/m*3 16.4 C 0 km/h
1456 02-09-2009 03:22:04 16.2 C 11.17 g/m*3 16.2 C 0 km/h
1457 02-09-2009 03:34:04 16.4 C 11.31 g/m*3 16.4 C 0 km/h
1458 02-09-2009 03:46:04 16.6 C 11.44 g/m*3 16.6 C 0 km/h
1459 02-09-2009 03:58:04 16.4 C 11.17 g/m*3 16.4 C 0 km/h
1460 02-09-2009 04:10:04 16.2 C 11.03 g/m*3 16.2 C 0 km/h
1461 02-09-2009 04:22:04 15.9 C 11.1 g/m*3 15.9 C 0 km/h
1462 02-09-2009 04:34:04 15.9 C 11.1 g/m*3 15.9 C 0 km/h
1463 02-09-2009 04:46:04 15.8 C 11.04 g/m*3 15.8 C 0 km/h
1464 02-09-2009 04:58:04 15.6 C 11.04 g/m*3 15.6 C 0 km/h
1465 02-09-2009 05:10:04 15.5 C 10.97 g/m*3 15.5 C 0 km/h
1466 02-09-2009 05:22:04 15.4 C 11.04 g/m*3 15.4 C 0 km/h
1467 02-09-2009 05:34:04 15.2 C 10.9 g/m*3 15.2 C 0 km/h
1468 02-09-2009 05:46:04 15.2 C 11.03 g/m*3 15.2 C 0 km/h
1469 02-09-2009 05:58:04 15.3 C 11.1 g/m*3 15.3 C 0 km/h
1470 02-09-2009 06:10:04 15.3 C 11.1 g/m*3 15.3 C 0 km/h
1471 02-09-2009 06:22:04 15.2 C 10.9 g/m*3 15.2 C 0 km/h
1472 02-09-2009 06:34:03 15.1 C 10.84 g/m*3 15.1 C 0 km/h
1473 02-09-2009 06:46:02 15 C 10.77 g/m*3 15 C 0 km/h
1474 02-09-2009 06:58:03 15.1 C 10.84 g/m*3 15.1 C 0 km/h
1475 02-09-2009 07:10:01 15.2 C 10.77 g/m*3 15.2 C 0 km/h
Sensor: Nr:Datum:Temp:Abs-Feuchte:Windchill:Wind:
Aussen-T/F 1476 02-09-2009 07:22:01 15.1 C 10.71 g/m*3 15.1 C 0 km/h
1477 02-09-2009 07:34:02 15.1 C 10.71 g/m*3 15.1 C 0 km/h
1478 02-09-2009 07:46:02 15.3 C 10.84 g/m*3 15.3 C 0 km/h
1479 02-09-2009 07:58:02 15.5 C 10.97 g/m*3 15.5 C 0 km/h
1480 02-09-2009 08:10:02 15.7 C 10.97 g/m*3 15.7 C 0 km/h
1481 02-09-2009 08:22:02 15.8 C 10.9 g/m*3 15.8 C 0 km/h
1482 02-09-2009 08:34:02 16 C 10.76 g/m*3 16 C 0 km/h
1483 02-09-2009 08:46:01 16.5 C 10.81 g/m*3 16.5 C 0 km/h
1484 02-09-2009 08:58:01 17 C 10.71 g/m*3 17 C 0 km/h
1485 02-09-2009 09:10:02 17.2 C 10.54 g/m*3 17.2 C 0 km/h
1486 02-09-2009 09:22:02 17.5 C 10.29 g/m*3 17.5 C 0 km/h
1487 02-09-2009 09:34:01 17.9 C 10.38 g/m*3 17.9 C 0 km/h
1488 02-09-2009 09:46:02 18.2 C 9.79 g/m*3 18.2 C 0 km/h
1489 02-09-2009 09:58:02 18.4 C 9.59 g/m*3 18.4 C 0 km/h
1490 02-09-2009 10:10:02 18.7 C 9.61 g/m*3 18.7 C 0 km/h
1491 02-09-2009 10:22:02 18.9 C 9.56 g/m*3 18.9 C 0 km/h
1492 02-09-2009 10:34:02 19.1 C 9.51 g/m*3 19.1 C 0 km/h
1493 02-09-2009 10:46:02 19.3 C 9.45 g/m*3 19.3 C 0 km/h
1494 02-09-2009 10:58:02 19.4 C 9.34 g/m*3 19.4 C 0 km/h
1495 02-09-2009 11:10:01 19.8 C 9.39 g/m*3 19.8 C 0 km/h
1496 02-09-2009 11:22:02 19.9 C 9.28 g/m*3 19.9 C 0 km/h
1497 02-09-2009 11:34:02 20.3 C 9.15 g/m*3 20.3 C 0 km/h
1498 02-09-2009 11:46:02 20.8 C 8.87 g/m*3 20.8 C 0 km/h
1499 02-09-2009 11:58:02 20.8 C 8.69 g/m*3 20.8 C 0 km/h
1500 02-09-2009 12:10:02 21.3 C 7.83 g/m*3 21.3 C 0 km/h
Sensor: Nr:Datum:Temp:Abs-Feuchte:Windchill:Wind:
Aussen-T/F 1501 02-09-2009 12:22:02 21.9 C 8.1 g/m*3 21.9 C 0 km/h
1502 02-09-2009 12:34:03 22 C 7.96 g/m*3 22 C 0 km/h
1503 02-09-2009 12:46:02 21.9 C 8.3 g/m*3 21.9 C 0 km/h
1504 02-09-2009 12:58:02 22 C 7.96 g/m*3 22 C 0 km/h
1505 02-09-2009 13:10:02 22.1 C 6.83 g/m*3 22.1 C 0 km/h
1506 02-09-2009 13:22:01 22 C 6.4 g/m*3 22 C 0 km/h
1507 02-09-2009 13:34:02 23.1 C 6.61 g/m*3 23.1 C 0 km/h
1508 02-09-2009 13:46:02 23.2 C 6.03 g/m*3 23.2 C 0 km/h
1509 02-09-2009 13:58:02 23.2 C 6.44 g/m*3 23.2 C 0 km/h
1510 02-09-2009 14:10:02 23.2 C 6.44 g/m*3 23.2 C 0 km/h
1511 02-09-2009 14:22:02 23.2 C 6.65 g/m*3 23.2 C 0 km/h
1512 02-09-2009 14:34:02 22.8 C 6.71 g/m*3 22.8 C 0 km/h
1513 02-09-2009 14:46:02 22.5 C 6.39 g/m*3 22.5 C 0 km/h
1514 02-09-2009 14:58:02 22.3 C 6.52 g/m*3 22.3 C 0 km/h
1515 02-09-2009 15:10:02 22.4 C 6.55 g/m*3 22.4 C 0 km/h
1516 02-09-2009 15:22:02 22.9 C 6.95 g/m*3 22.9 C 0 km/h
1517 02-09-2009 15:34:02 23.3 C 7.11 g/m*3 23.3 C 0 km/h
1518 02-09-2009 15:46:02 23.3 C 6.9 g/m*3 23.3 C 0 km/h
1519 02-09-2009 15:58:02 23.5 C 6.77 g/m*3 23.5 C 0 km/h
1520 02-09-2009 16:10:02 23.5 C 6.34 g/m*3 23.5 C 0 km/h
1521 02-09-2009 16:22:02 23 C 6.17 g/m*3 23 C 0 km/h
1522 02-09-2009 16:34:02 22.8 C 6.5 g/m*3 22.8 C 0 km/h
1523 02-09-2009 16:46:02 22.5 C 6.19 g/m*3 22.5 C 0 km/h
1524 02-09-2009 16:58:02 22.4 C 5.96 g/m*3 22.4 C 0 km/h
1525 02-09-2009 17:10:02 22.6 C 6.23 g/m*3 22.6 C 0 km/h
Sensor: Nr:Datum:Temp:Abs-Feuchte:Windchill:Wind:
Aussen-T/F 1526 02-09-2009 17:22:03 22.1 C 5.86 g/m*3 22.1 C 0 km/h
1527 02-09-2009 17:34:02 22.1 C 6.05 g/m*3 22.1 C 0 km/h
1528 02-09-2009 17:46:02 22.2 C 6.09 g/m*3 22.2 C 0 km/h
1529 02-09-2009 17:58:02 22 C 6.02 g/m*3 22 C 0 km/h
1530 02-09-2009 18:10:02 21.7 C 6.1 g/m*3 21.7 C 0 km/h
1531 02-09-2009 18:22:02 21.6 C 6.26 g/m*3 21.6 C 0 km/h
1532 02-09-2009 18:34:02 22 C 6.02 g/m*3 22 C 0 km/h
1533 02-09-2009 18:46:02 22.9 C 6.13 g/m*3 22.9 C 0 km/h
1534 02-09-2009 18:58:02 21.6 C 5.88 g/m*3 21.6 C 0 km/h
1535 02-09-2009 19:10:02 21.1 C 5.71 g/m*3 21.1 C 0 km/h
1536 02-09-2009 19:22:02 20.9 C 6.01 g/m*3 20.9 C 0 km/h
1537 02-09-2009 19:34:01 20.5 C 6.23 g/m*3 20.5 C 0 km/h
1538 02-09-2009 19:46:02 20 C 6.22 g/m*3 20 C 0 km/h
1539 02-09-2009 19:58:02 19.4 C 6.34 g/m*3 19.4 C 0 km/h
1540 02-09-2009 20:10:01 18.8 C 6.44 g/m*3 18.8 C 0 km/h
1541 02-09-2009 20:22:02 18.3 C 6.57 g/m*3 18.3 C 0 km/h
1542 02-09-2009 20:34:02 17.9 C 6.57 g/m*3 17.9 C 0 km/h
1543 02-09-2009 20:46:02 17.7 C 6.79 g/m*3 17.7 C 0 km/h
1544 02-09-2009 20:58:02 17.9 C 6.87 g/m*3 17.9 C 0 km/h
1545 02-09-2009 21:10:03 18.1 C 6.95 g/m*3 18.1 C 0 km/h
1546 02-09-2009 21:22:02 18.1 C 6.95 g/m*3 18.1 C 0 km/h
1547 02-09-2009 21:34:02 18.1 C 7.11 g/m*3 18.1 C 0 km/h
1548 02-09-2009 21:46:01 18 C 7.07 g/m*3 18 C 0 km/h
1549 02-09-2009 21:58:01 17.9 C 7.33 g/m*3 17.9 C 0 km/h
1550 02-09-2009 22:10:02 17.8 C 7.29 g/m*3 17.8 C 0 km/h
Sensor: Nr:Datum:Temp:Abs-Feuchte:Windchill:Wind:
Aussen-T/F 1551 02-09-2009 22:23:02 16.9 C 8.05 g/m*3 16.9 C 0 km/h
1552 02-09-2009 22:35:02 16.2 C 9.52 g/m*3 16.2 C 0 km/h
1553 02-09-2009 22:47:03 15.3 C 9.53 g/m*3 15.3 C 0 km/h
1554 02-09-2009 22:59:03 15.7 C 10.3 g/m*3 15.7 C 0 km/h
1555 02-09-2009 23:11:03 16 C 10.08 g/m*3 16 C 0 km/h
1556 02-09-2009 23:23:03 16.2 C 9.79 g/m*3 16.2 C 0 km/h
1557 02-09-2009 23:35:03 16 C 9.4 g/m*3 16 C 0 km/h
1558 02-09-2009 23:47:03 16 C 9.4 g/m*3 16 C 0 km/h
1559 02-09-2009 23:59:03 16.2 C 9.38 g/m*3 16.2 C 0 km/h
1560 03-09-2009 00:11:03 16.2 C 9.65 g/m*3 16.2 C 0 km/h
1561 03-09-2009 00:23:03 16.4 C 9.21 g/m*3 16.4 C 0 km/h
1562 03-09-2009 00:35:03 16.6 C 9.04 g/m*3 16.6 C 0 km/h
1563 03-09-2009 00:47:03 16.7 C 8.95 g/m*3 16.7 C 0 km/h
1564 03-09-2009 00:59:03 16.8 C 9.15 g/m*3 16.8 C 0 km/h
1565 03-09-2009 01:11:03 16.6 C 9.04 g/m*3 16.6 C 0 km/h
1566 03-09-2009 01:23:03 16.5 C 8.99 g/m*3 16.5 C 0 km/h
1567 03-09-2009 01:35:03 16.6 C 9.04 g/m*3 16.6 C 0 km/h
1568 03-09-2009 01:47:03 16.5 C 8.99 g/m*3 16.5 C 0 km/h
1569 03-09-2009 01:59:03 16.5 C 8.99 g/m*3 16.5 C 0 km/h
1570 03-09-2009 02:11:03 16.4 C 9.07 g/m*3 16.4 C 0 km/h
1571 03-09-2009 02:23:03 16.5 C 8.99 g/m*3 16.5 C 0 km/h
1572 03-09-2009 02:35:04 15.6 C 9.44 g/m*3 15.6 C 0 km/h
1573 03-09-2009 02:47:04 15 C 9.75 g/m*3 15 C 0 km/h
1574 03-09-2009 02:59:04 15 C 10 g/m*3 15 C 0 km/h
1575 03-09-2009 03:11:04 15 C 10.26 g/m*3 15 C 0 km/h
Sensor: Nr:Datum:Temp:Abs-Feuchte:Windchill:Wind:
Aussen-T/F 1576 03-09-2009 03:23:04 14.9 C 10.58 g/m*3 14.9 C 0 km/h
1577 03-09-2009 03:35:04 15 C 10.51 g/m*3 15 C 0 km/h
1578 03-09-2009 03:47:04 15.1 C 10.58 g/m*3 15.1 C 0 km/h
1579 03-09-2009 03:59:04 15.1 C 10.58 g/m*3 15.1 C 0 km/h
1580 03-09-2009 04:11:04 15.3 C 10.45 g/m*3 15.3 C 0 km/h
1581 03-09-2009 04:23:04 15.3 C 10.45 g/m*3 15.3 C 0 km/h
1582 03-09-2009 04:35:04 15.3 C 10.45 g/m*3 15.3 C 0 km/h
1583 03-09-2009 04:47:04 15.4 C 10.51 g/m*3 15.4 C 0 km/h
1584 03-09-2009 04:59:04 15 C 10.39 g/m*3 15 C 0 km/h
1585 03-09-2009 05:11:04 15 C 10.64 g/m*3 15 C 0 km/h
1586 03-09-2009 05:23:04 14.9 C 10.83 g/m*3 14.9 C 0 km/h
1587 03-09-2009 05:35:04 14.8 C 10.89 g/m*3 14.8 C 0 km/h
1588 03-09-2009 05:47:04 14.8 C 10.89 g/m*3 14.8 C 0 km/h
1589 03-09-2009 05:59:04 14.7 C 10.83 g/m*3 14.7 C 0 km/h
1590 03-09-2009 06:11:04 14.7 C 11.08 g/m*3 14.7 C 0 km/h
1591 03-09-2009 06:23:05 14.7 C 11.08 g/m*3 14.7 C 0 km/h
1592 03-09-2009 06:35:05 15 C 11.16 g/m*3 15 C 0 km/h
1593 03-09-2009 06:47:05 15 C 11.16 g/m*3 15 C 0 km/h
1594 03-09-2009 06:59:05 14.8 C 11.15 g/m*3 14.8 C 0 km/h
1595 03-09-2009 07:11:02 14.8 C 11.15 g/m*3 14.8 C 0 km/h
1596 03-09-2009 07:23:03 14.7 C 11.21 g/m*3 14.7 C 0 km/h
1597 03-09-2009 07:35:02 14.9 C 11.47 g/m*3 14.9 C 0 km/h
1598 03-09-2009 07:47:02 15.2 C 11.68 g/m*3 15.2 C 0 km/h
1599 03-09-2009 07:59:02 15.4 C 11.69 g/m*3 15.4 C 0 km/h
1600 03-09-2009 08:11:02 15.6 C 11.7 g/m*3 15.6 C 0 km/h
Sensor: Nr:Datum:Temp:Abs-Feuchte:Windchill:Wind:
Aussen-T/F 1601 03-09-2009 08:23:02 15.7 C 11.64 g/m*3 15.7 C 0 km/h
1602 03-09-2009 08:35:03 15.8 C 11.44 g/m*3 15.8 C 0 km/h
1603 03-09-2009 08:47:02 15.8 C 11.44 g/m*3 15.8 C 0 km/h
1604 03-09-2009 08:59:03 15.7 C 11.51 g/m*3 15.7 C 0 km/h
1605 03-09-2009 09:11:01 16 C 11.31 g/m*3 16 C 0 km/h
1606 03-09-2009 09:23:01 16.4 C 11.17 g/m*3 16.4 C 0 km/h
1607 03-09-2009 09:35:02 16.8 C 11.15 g/m*3 16.8 C 0 km/h
1608 03-09-2009 09:47:02 17.7 C 10.71 g/m*3 17.7 C 0 km/h
1609 03-09-2009 09:59:02 17.8 C 10.62 g/m*3 17.8 C 0 km/h
1610 03-09-2009 10:11:02 17.9 C 10.38 g/m*3 17.9 C 0 km/h
1611 03-09-2009 10:23:01 18.3 C 10.01 g/m*3 18.3 C 0 km/h
1612 03-09-2009 10:35:02 18.6 C 10.03 g/m*3 18.6 C 0 km/h
1613 03-09-2009 10:47:01 17 C 10.56 g/m*3 17 C 0 km/h
1614 03-09-2009 10:59:01 17.2 C 10.98 g/m*3 17.2 C 0 km/h
1615 03-09-2009 11:11:02 17.7 C 10.11 g/m*3 17.7 C 0 km/h
1616 03-09-2009 11:23:02 18 C 9.37 g/m*3 18 C 0 km/h
1617 03-09-2009 11:35:02 18.2 C 8.7 g/m*3 18.2 C 0 km/h
1618 03-09-2009 11:47:01 18.8 C 8.86 g/m*3 18.8 C 0 km/h
1619 03-09-2009 11:59:01 18.5 C 8.39 g/m*3 18.5 C 0 km/h
1620 03-09-2009 12:11:02 18.7 C 7.68 g/m*3 18.7 C 0 km/h
1621 03-09-2009 12:23:02 19.2 C 7.26 g/m*3 19.2 C 0 km/h
1622 03-09-2009 12:35:02 19.4 C 6.84 g/m*3 19.4 C 0 km/h
1623 03-09-2009 12:47:02 19.3 C 6.47 g/m*3 19.3 C 0 km/h
1624 03-09-2009 12:59:02 19.5 C 6.38 g/m*3 19.5 C 0 km/h
1625 03-09-2009 13:11:01 19.4 C 6.17 g/m*3 19.4 C 0 km/h
Sensor: Nr:Datum:Temp:Abs-Feuchte:Windchill:Wind:
Aussen-T/F 1626 03-09-2009 13:23:02 19.7 C 6.62 g/m*3 19.7 C 0 km/h
1627 03-09-2009 13:35:01 19.5 C 6.21 g/m*3 19.5 C 0 km/h
1628 03-09-2009 13:47:02 19.9 C 6.36 g/m*3 19.9 C 0 km/h
1629 03-09-2009 13:59:02 20.6 C 6.44 g/m*3 20.6 C 0 km/h
1630 03-09-2009 14:11:01 20.8 C 6.34 g/m*3 20.8 C 0 km/h
1631 03-09-2009 14:23:02 20.9 C 6.37 g/m*3 20.9 C 0 km/h
1632 03-09-2009 14:35:01 21.4 C 6.19 g/m*3 21.4 C 0 km/h
1633 03-09-2009 14:47:02 21.3 C 5.96 g/m*3 21.3 C 0 km/h
1634 03-09-2009 14:59:03 20.8 C 5.98 g/m*3 20.8 C 0 km/h
1635 03-09-2009 15:11:02 21.8 C 5.76 g/m*3 21.8 C 0 km/h
1636 03-09-2009 15:23:02 22.5 C 5.79 g/m*3 22.5 C 0 km/h
1637 03-09-2009 15:35:02 22.5 C 5.19 g/m*3 22.5 C 0 km/h
1638 03-09-2009 15:47:02 21.7 C 4.96 g/m*3 21.7 C 0 km/h
1639 03-09-2009 15:59:02 21.8 C 5.37 g/m*3 21.8 C 0 km/h
1640 03-09-2009 16:11:02 20.8 C 5.43 g/m*3 20.8 C 0 km/h
1641 03-09-2009 16:23:01 20.3 C 5.63 g/m*3 20.3 C 0 km/h
1642 03-09-2009 16:35:02 20.2 C 5.6 g/m*3 20.2 C 0 km/h
1643 03-09-2009 16:47:02 20.1 C 5.56 g/m*3 20.1 C 0 km/h
1644 03-09-2009 16:59:02 19.9 C 5.84 g/m*3 19.9 C 0 km/h
1645 03-09-2009 17:11:02 19.7 C 5.77 g/m*3 19.7 C 0 km/h
1646 03-09-2009 17:23:02 19.6 C 5.91 g/m*3 19.6 C 0 km/h
1647 03-09-2009 17:35:02 19.6 C 5.91 g/m*3 19.6 C 0 km/h
1648 03-09-2009 17:47:02 19.5 C 5.87 g/m*3 19.5 C 0 km/h
1649 03-09-2009 17:59:02 19.4 C 5.84 g/m*3 19.4 C 0 km/h
1650 03-09-2009 18:11:02 18.5 C 6.65 g/m*3 18.5 C 0 km/h
Sensor: Nr:Datum:Temp:Abs-Feuchte:Windchill:Wind:
Aussen-T/F 1651 03-09-2009 18:23:02 17.6 C 7.5 g/m*3 17.6 C 0 km/h
1652 03-09-2009 18:35:02 18.1 C 7.42 g/m*3 18.1 C 0 km/h
1653 03-09-2009 18:47:02 18.3 C 7.19 g/m*3 18.3 C 0 km/h
1654 03-09-2009 18:59:02 18.2 C 7.15 g/m*3 18.2 C 0 km/h
1655 03-09-2009 19:11:02 18.4 C 7.39 g/m*3 18.4 C 0 km/h
1656 03-09-2009 19:23:02 18 C 7.22 g/m*3 18 C 0 km/h
1657 03-09-2009 19:35:02 17.7 C 7.09 g/m*3 17.7 C 0 km/h
1658 03-09-2009 19:47:02 17.7 C 7.09 g/m*3 17.7 C 0 km/h
1659 03-09-2009 19:59:02 17.5 C 7.01 g/m*3 17.5 C 0 km/h
1660 03-09-2009 20:11:02 17.5 C 7.01 g/m*3 17.5 C 0 km/h
1661 03-09-2009 20:23:03 17.5 C 7.01 g/m*3 17.5 C 0 km/h
1662 03-09-2009 20:35:02 17.5 C 7.01 g/m*3 17.5 C 0 km/h
1663 03-09-2009 20:47:03 17.3 C 6.78 g/m*3 17.3 C 0 km/h
1664 03-09-2009 20:59:03 17.1 C 6.7 g/m*3 17.1 C 0 km/h
1665 03-09-2009 21:11:02 17.1 C 6.55 g/m*3 17.1 C 0 km/h
1666 03-09-2009 21:23:02 17.1 C 6.55 g/m*3 17.1 C 0 km/h
1667 03-09-2009 21:35:02 17 C 6.51 g/m*3 17 C 0 km/h
1668 03-09-2009 21:48:04 17 C 6.51 g/m*3 17 C 0 km/h
1669 03-09-2009 22:00:04 16.6 C 6.5 g/m*3 16.6 C 0 km/h
1670 03-09-2009 22:12:04 16.4 C 6.7 g/m*3 16.4 C 0 km/h
1671 03-09-2009 22:24:04 16.2 C 6.62 g/m*3 16.2 C 0 km/h
1672 03-09-2009 22:36:04 16.2 C 6.62 g/m*3 16.2 C 0 km/h
1673 03-09-2009 22:48:04 16.3 C 6.52 g/m*3 16.3 C 0 km/h
1674 03-09-2009 23:00:04 16.3 C 6.66 g/m*3 16.3 C 0 km/h
1675 03-09-2009 23:12:04 16.1 C 6.58 g/m*3 16.1 C 0 km/h
Sensor: Nr:Datum:Temp:Abs-Feuchte:Windchill:Wind:
Aussen-T/F 1676 03-09-2009 23:24:04 16.2 C 6.76 g/m*3 16.2 C 0 km/h
1677 03-09-2009 23:36:04 16.2 C 6.9 g/m*3 16.2 C 0 km/h
1678 03-09-2009 23:48:05 16.2 C 6.9 g/m*3 16.2 C 0 km/h

Legende:
   Min
   Max


Maximal/Minimal-Werte vom 21.08.2009 - 03.09.2009

Sensor Min Max Avg
Temp
(Aussen-T/F)
8.5 °C
30-08-2009  06:55:01
33.1 °C
24-08-2009  17:50:02
20.02 °C
Abs-Feuchte
(Aussen-T/F)
4.1 g/m*3
29-08-2009  15:54:02
15.12 g/m*3
21-08-2009  01:47:00
8.42 g/m*3
Windchill
(Aussen-T/F)
8.5 C
30-08-2009  06:55:01
33.1 C
24-08-2009  17:50:02
20.01 C

Die Daten stammen von einer Davis Vantage Pro 2 Wetter-Station und werden unter Linux mit der Software wview2wettercgi und aufbereitet. Alle Angaben erfolgen ohne Gewähr für ihre Vollständigkeit oder Richtigkeit.
Kontakt: Rainer Krienke krienke@uni-koblenz.de . Meine Webseiten an der Uni Koblenz oder privat.
Version: $Revision: 0.78 $